SAS98G EKCH-RKSI
Flight info
| Callsign | SAS98G |
|---|---|
| Flight time | 11h 19m |
| Altitude | 37000 |
| Route | SIMEG Z493 BILRA DCT UVIVI DCT BAREX DCT KELEL DCT KEKED DCT BADOR DCT LUGEB DCT UDROS UM859 KARDE UN644 ROLIN N644 LAGAS M747 SUBUT T916 LEYLA N161 GASBI/K0895F390 N161 SARIN/K0876S1190 A368 FKG W188 BATUS/K0891S1250 W188 LIKMI W270 DKO W69 HUR B339 LADIX W34 VAPGU W100 ORAVA W201 UNSEK A326 DONVO G597 AGAVO/N0473F410 Y644 REBIT REBIT1Y |
| Aircraft | A359/H-SDE2E3GHIJ1J3J4J5LM1ORWXY/LB1D1 |
Departure
| Time | 2026-04-22 10:52 |
|---|---|
| Airport | Copenhagen Kastrup Airport (EKCH) |
Arrival
| Time | 2026-04-22 22:12 |
|---|---|
| Airport | Incheon International Airport (RKSI) |
| Time | Latitude | Longitude | Altitude | Speed | Heading |
|---|---|---|---|---|---|
| 2026-04-22 10:32 | 55.62359 | 12.65078 | 23 ft | 0 kts | 276° |
| 2026-04-22 10:41 | 55.62359 | 12.65083 | 23 ft | 3 kts | 276° |
| 2026-04-22 10:42 | 55.62356 | 12.65129 | 28 ft | 4 kts | 276° |
| 2026-04-22 10:42 | 55.62353 | 12.65171 | 29 ft | 4 kts | 271° |
| 2026-04-22 10:42 | 55.62353 | 12.65195 | 29 ft | 4 kts | 222° |
| 2026-04-22 10:42 | 55.62366 | 12.65205 | 27 ft | 4 kts | 181° |
| 2026-04-22 10:43 | 55.62393 | 12.65204 | 26 ft | 3 kts | 178° |
| 2026-04-22 10:43 | 55.62398 | 12.65204 | 27 ft | 5 kts | 179° |
| 2026-04-22 10:45 | 55.62375 | 12.65205 | 29 ft | 7 kts | 178° |
| 2026-04-22 10:45 | 55.62310 | 12.65201 | 26 ft | 9 kts | 183° |
| 2026-04-22 10:45 | 55.62248 | 12.65197 | 26 ft | 10 kts | 186° |
| 2026-04-22 10:45 | 55.62187 | 12.65157 | 28 ft | 9 kts | 208° |
| 2026-04-22 10:46 | 55.62144 | 12.65107 | 26 ft | 6 kts | 213° |
| 2026-04-22 10:46 | 55.62116 | 12.65075 | 26 ft | 4 kts | 213° |
| 2026-04-22 10:46 | 55.62081 | 12.65034 | 28 ft | 9 kts | 213° |
| 2026-04-22 10:46 | 55.62014 | 12.64956 | 28 ft | 13 kts | 213° |
| 2026-04-22 10:47 | 55.61924 | 12.64853 | 24 ft | 17 kts | 213° |
| 2026-04-22 10:47 | 55.61812 | 12.64725 | 24 ft | 21 kts | 212° |
| 2026-04-22 10:47 | 55.61688 | 12.64582 | 26 ft | 21 kts | 213° |
| 2026-04-22 10:47 | 55.61564 | 12.64439 | 28 ft | 21 kts | 213° |
| 2026-04-22 10:48 | 55.61439 | 12.64296 | 24 ft | 21 kts | 213° |
| 2026-04-22 10:48 | 55.61313 | 12.64151 | 27 ft | 22 kts | 213° |
| 2026-04-22 10:48 | 55.61186 | 12.64006 | 26 ft | 22 kts | 213° |
| 2026-04-22 10:48 | 55.61061 | 12.63859 | 27 ft | 22 kts | 212° |
| 2026-04-22 10:49 | 55.60934 | 12.63716 | 27 ft | 22 kts | 213° |
| 2026-04-22 10:49 | 55.60807 | 12.63572 | 29 ft | 22 kts | 212° |
| 2026-04-22 10:49 | 55.60679 | 12.63422 | 24 ft | 22 kts | 216° |
| 2026-04-22 10:49 | 55.60559 | 12.63245 | 23 ft | 22 kts | 220° |
| 2026-04-22 10:50 | 55.60433 | 12.63116 | 25 ft | 19 kts | 169° |
| 2026-04-22 10:50 | 55.60345 | 12.63261 | 27 ft | 11 kts | 128° |
| 2026-04-22 10:50 | 55.60330 | 12.63321 | 29 ft | 4 kts | 85° |
| 2026-04-22 10:50 | 55.60349 | 12.63361 | 29 ft | 7 kts | 47° |
| 2026-04-22 10:51 | 55.60366 | 12.63390 | 26 ft | 0 kts | 41° |
| 2026-04-22 10:51 | 55.60376 | 12.63406 | 30 ft | 11 kts | 43° |
| 2026-04-22 10:51 | 55.60605 | 12.63753 | 28 ft | 77 kts | 38° |
| 2026-04-22 10:52 | 55.61151 | 12.64600 | 26 ft | 134 kts | 43° |
| 2026-04-22 10:52 | 55.61966 | 12.65897 | 126 ft | 174 kts | 38° |
| 2026-04-22 10:52 | 55.62926 | 12.67317 | 641 ft | 184 kts | 36° |
| 2026-04-22 10:52 | 55.63882 | 12.68789 | 1422 ft | 186 kts | 40° |
| 2026-04-22 10:53 | 55.64898 | 12.70391 | 1919 ft | 204 kts | 40° |
| 2026-04-22 10:53 | 55.65991 | 12.72139 | 2438 ft | 223 kts | 45° |
| 2026-04-22 10:53 | 55.66666 | 12.74738 | 2872 ft | 246 kts | 84° |
| 2026-04-22 10:53 | 55.66268 | 12.77666 | 3871 ft | 252 kts | 120° |
| 2026-04-22 10:54 | 55.64956 | 12.79731 | 4783 ft | 260 kts | 154° |
| 2026-04-22 10:54 | 55.63159 | 12.80184 | 5545 ft | 269 kts | 188° |
| 2026-04-22 10:54 | 55.61419 | 12.78973 | 6312 ft | 274 kts | 208° |
| 2026-04-22 10:54 | 55.59659 | 12.77583 | 6952 ft | 277 kts | 193° |
| 2026-04-22 10:55 | 55.57752 | 12.76990 | 7532 ft | 280 kts | 185° |
| 2026-04-22 10:55 | 55.55851 | 12.76569 | 8082 ft | 284 kts | 183° |
| 2026-04-22 10:55 | 55.53874 | 12.76505 | 8649 ft | 285 kts | 171° |
| 2026-04-22 10:55 | 55.52007 | 12.77528 | 9273 ft | 281 kts | 147° |
| 2026-04-22 10:56 | 55.50537 | 12.79725 | 9866 ft | 276 kts | 123° |
| 2026-04-22 10:56 | 55.49491 | 12.82546 | 10474 ft | 277 kts | 117° |
| 2026-04-22 10:56 | 55.48476 | 12.85537 | 10751 ft | 292 kts | 117° |
| 2026-04-22 10:56 | 55.47393 | 12.88663 | 11002 ft | 306 kts | 118° |
| 2026-04-22 10:57 | 55.46241 | 12.91917 | 11264 ft | 320 kts | 118° |
| 2026-04-22 10:57 | 55.45026 | 12.95314 | 11530 ft | 333 kts | 119° |
| 2026-04-22 10:57 | 55.43765 | 12.98811 | 11869 ft | 342 kts | 119° |
| 2026-04-22 10:57 | 55.42478 | 13.02367 | 12386 ft | 346 kts | 119° |
| 2026-04-22 10:58 | 55.41192 | 13.05911 | 12914 ft | 349 kts | 119° |
| 2026-04-22 10:58 | 55.39861 | 13.09574 | 13439 ft | 352 kts | 119° |
| 2026-04-22 10:58 | 55.38552 | 13.13172 | 13979 ft | 355 kts | 119° |
| 2026-04-22 10:58 | 55.37196 | 13.16891 | 14464 ft | 357 kts | 119° |
| 2026-04-22 10:59 | 55.35869 | 13.20524 | 14983 ft | 359 kts | 119° |
| 2026-04-22 10:59 | 55.34498 | 13.24272 | 15488 ft | 360 kts | 119° |
| 2026-04-22 10:59 | 55.33140 | 13.27981 | 15989 ft | 362 kts | 119° |
| 2026-04-22 10:59 | 55.31794 | 13.31654 | 16495 ft | 363 kts | 119° |
| 2026-04-22 11:00 | 55.30406 | 13.35435 | 17010 ft | 365 kts | 119° |
| 2026-04-22 11:00 | 55.29046 | 13.39134 | 17491 ft | 366 kts | 119° |
| 2026-04-22 11:00 | 55.27662 | 13.42891 | 17983 ft | 368 kts | 119° |
| 2026-04-22 11:00 | 55.26266 | 13.46679 | 18477 ft | 370 kts | 119° |
| 2026-04-22 11:01 | 55.24814 | 13.50408 | 18908 ft | 373 kts | 123° |
| 2026-04-22 11:01 | 55.23202 | 13.53996 | 19340 ft | 376 kts | 126° |
| 2026-04-22 11:01 | 55.21500 | 13.57494 | 19763 ft | 379 kts | 127° |
| 2026-04-22 11:01 | 55.19751 | 13.60962 | 20189 ft | 380 kts | 127° |
| 2026-04-22 11:02 | 55.17989 | 13.64417 | 20614 ft | 382 kts | 127° |
| 2026-04-22 11:02 | 55.16220 | 13.67898 | 21031 ft | 383 kts | 127° |
| 2026-04-22 11:02 | 55.14450 | 13.71400 | 21449 ft | 385 kts | 127° |
| 2026-04-22 11:02 | 55.12677 | 13.74928 | 21875 ft | 386 kts | 126° |
| 2026-04-22 11:03 | 55.10904 | 13.78467 | 22308 ft | 388 kts | 126° |
| 2026-04-22 11:03 | 55.09125 | 13.82025 | 22709 ft | 390 kts | 126° |
| 2026-04-22 11:03 | 55.07338 | 13.85598 | 23113 ft | 392 kts | 126° |
| 2026-04-22 11:03 | 55.05544 | 13.89177 | 23526 ft | 393 kts | 126° |
| 2026-04-22 11:04 | 55.03738 | 13.92776 | 23932 ft | 395 kts | 126° |
| 2026-04-22 11:04 | 55.01924 | 13.96383 | 24258 ft | 397 kts | 126° |
| 2026-04-22 11:04 | 55.00098 | 14.00009 | 24563 ft | 399 kts | 126° |
| 2026-04-22 11:04 | 54.98261 | 14.03651 | 24894 ft | 401 kts | 126° |
| 2026-04-22 11:05 | 54.96416 | 14.07304 | 25242 ft | 402 kts | 126° |
| 2026-04-22 11:05 | 54.94561 | 14.10967 | 25581 ft | 404 kts | 126° |
| 2026-04-22 11:05 | 54.92674 | 14.14610 | 25911 ft | 408 kts | 129° |
| 2026-04-22 11:05 | 54.90529 | 14.17913 | 26232 ft | 416 kts | 136° |
| 2026-04-22 11:06 | 54.89002 | 14.19945 | 26449 ft | 418 kts | 137° |
| 2026-04-22 11:06 | 54.86641 | 14.22924 | 26783 ft | 421 kts | 139° |
| 2026-04-22 11:06 | 54.84234 | 14.25852 | 27117 ft | 424 kts | 139° |
| 2026-04-22 11:06 | 54.81797 | 14.28769 | 27456 ft | 426 kts | 139° |
| 2026-04-22 11:07 | 54.79349 | 14.31688 | 27769 ft | 428 kts | 139° |
| 2026-04-22 11:07 | 54.76890 | 14.34626 | 28096 ft | 430 kts | 139° |
| 2026-04-22 11:07 | 54.74426 | 14.37597 | 28427 ft | 432 kts | 139° |
| 2026-04-22 11:07 | 54.71962 | 14.40584 | 28736 ft | 434 kts | 139° |
| 2026-04-22 11:08 | 54.69485 | 14.43592 | 29061 ft | 436 kts | 139° |
| 2026-04-22 11:08 | 54.66990 | 14.46620 | 29378 ft | 438 kts | 139° |
| 2026-04-22 11:08 | 54.64492 | 14.49647 | 29692 ft | 440 kts | 139° |
| 2026-04-22 11:08 | 54.61974 | 14.52694 | 29994 ft | 442 kts | 139° |
| 2026-04-22 11:09 | 54.59448 | 14.55744 | 30289 ft | 445 kts | 139° |
| 2026-04-22 11:09 | 54.56910 | 14.58803 | 30534 ft | 447 kts | 139° |
| 2026-04-22 11:09 | 54.54357 | 14.61873 | 30788 ft | 449 kts | 139° |
| 2026-04-22 11:09 | 54.51788 | 14.64958 | 31030 ft | 451 kts | 139° |
| 2026-04-22 11:10 | 54.49212 | 14.68046 | 31250 ft | 453 kts | 139° |
| 2026-04-22 11:10 | 54.46622 | 14.71146 | 31493 ft | 455 kts | 139° |
| 2026-04-22 11:10 | 54.44022 | 14.74253 | 31726 ft | 456 kts | 139° |
| 2026-04-22 11:10 | 54.41403 | 14.77379 | 31940 ft | 458 kts | 140° |
| 2026-04-22 11:11 | 54.38788 | 14.80495 | 32147 ft | 460 kts | 140° |
| 2026-04-22 11:11 | 54.36148 | 14.83634 | 32356 ft | 462 kts | 140° |
| 2026-04-22 11:11 | 54.33509 | 14.86769 | 32611 ft | 462 kts | 140° |
| 2026-04-22 11:11 | 54.30864 | 14.89903 | 32903 ft | 461 kts | 140° |
| 2026-04-22 11:12 | 54.28223 | 14.93027 | 33198 ft | 461 kts | 140° |
| 2026-04-22 11:12 | 54.25583 | 14.96146 | 33495 ft | 461 kts | 140° |
| 2026-04-22 11:12 | 54.22950 | 14.99253 | 33796 ft | 460 kts | 140° |
| 2026-04-22 11:12 | 54.20349 | 15.02318 | 34064 ft | 460 kts | 140° |
| 2026-04-22 11:13 | 54.17677 | 15.05462 | 34344 ft | 460 kts | 140° |
| 2026-04-22 11:13 | 54.15077 | 15.08516 | 34561 ft | 460 kts | 140° |
| 2026-04-22 11:13 | 54.12441 | 15.11609 | 34717 ft | 461 kts | 140° |
| 2026-04-22 11:13 | 54.09791 | 15.14713 | 34883 ft | 463 kts | 140° |
| 2026-04-22 11:14 | 54.07134 | 15.17821 | 35059 ft | 464 kts | 141° |
| 2026-04-22 11:14 | 54.04469 | 15.20932 | 35223 ft | 465 kts | 141° |
| 2026-04-22 11:14 | 54.01808 | 15.24033 | 35386 ft | 466 kts | 141° |
| 2026-04-22 11:14 | 53.99130 | 15.27149 | 35572 ft | 467 kts | 141° |
| 2026-04-22 11:15 | 53.96444 | 15.30270 | 35722 ft | 468 kts | 141° |
| 2026-04-22 11:15 | 53.93756 | 15.33388 | 35875 ft | 469 kts | 141° |
| 2026-04-22 11:15 | 53.91066 | 15.36502 | 36029 ft | 470 kts | 141° |
| 2026-04-22 11:15 | 53.88363 | 15.39627 | 36172 ft | 470 kts | 141° |
| 2026-04-22 11:16 | 53.85649 | 15.42759 | 36319 ft | 471 kts | 141° |
| 2026-04-22 11:16 | 53.82943 | 15.45879 | 36460 ft | 472 kts | 142° |
| 2026-04-22 11:16 | 53.80222 | 15.49009 | 36621 ft | 473 kts | 142° |
| 2026-04-22 11:16 | 53.77490 | 15.52147 | 36731 ft | 474 kts | 142° |
| 2026-04-22 11:17 | 53.74766 | 15.55273 | 36852 ft | 475 kts | 142° |
| 2026-04-22 11:17 | 53.72021 | 15.58417 | 36999 ft | 476 kts | 142° |
| 2026-04-22 11:17 | 53.69283 | 15.61548 | 37110 ft | 477 kts | 142° |
| 2026-04-22 11:18 | 53.63771 | 15.67837 | 37255 ft | 479 kts | 142° |
| 2026-04-22 11:18 | 53.58241 | 15.74122 | 37241 ft | 479 kts | 142° |
| 2026-04-22 11:19 | 53.52709 | 15.80388 | 37233 ft | 480 kts | 142° |
| 2026-04-22 11:19 | 53.47169 | 15.86647 | 37241 ft | 480 kts | 142° |
| 2026-04-22 11:20 | 53.41623 | 15.92894 | 37231 ft | 480 kts | 142° |
| 2026-04-22 11:20 | 53.36075 | 15.99122 | 37227 ft | 480 kts | 142° |
| 2026-04-22 11:21 | 53.30516 | 16.05341 | 37229 ft | 481 kts | 142° |
| 2026-04-22 11:21 | 53.24951 | 16.11547 | 37228 ft | 481 kts | 143° |
| 2026-04-22 11:22 | 53.19375 | 16.17746 | 37220 ft | 481 kts | 143° |
| 2026-04-22 11:22 | 53.13800 | 16.23925 | 37221 ft | 482 kts | 143° |
| 2026-04-22 11:23 | 53.08211 | 16.30099 | 37222 ft | 482 kts | 143° |
| 2026-04-22 11:23 | 53.02622 | 16.36254 | 37219 ft | 482 kts | 143° |
| 2026-04-22 11:24 | 52.97027 | 16.42397 | 37217 ft | 482 kts | 143° |
| 2026-04-22 11:24 | 52.91421 | 16.48533 | 37217 ft | 483 kts | 143° |
| 2026-04-22 11:25 | 52.85814 | 16.54650 | 37218 ft | 483 kts | 143° |
| 2026-04-22 11:25 | 52.80197 | 16.60757 | 37223 ft | 483 kts | 143° |
| 2026-04-22 11:26 | 52.74606 | 16.66818 | 37217 ft | 484 kts | 143° |
| 2026-04-22 11:26 | 52.68936 | 16.72947 | 37223 ft | 484 kts | 143° |
| 2026-04-22 11:27 | 52.63341 | 16.78976 | 37232 ft | 484 kts | 143° |
| 2026-04-22 11:27 | 52.57699 | 16.85034 | 37231 ft | 484 kts | 143° |
| 2026-04-22 11:28 | 52.52050 | 16.91079 | 37133 ft | 484 kts | 142° |
| 2026-04-22 11:28 | 52.49226 | 16.94092 | 37237 ft | 485 kts | 142° |
| 2026-04-22 11:28 | 52.46399 | 16.97108 | 37242 ft | 484 kts | 142° |
| 2026-04-22 11:29 | 52.40751 | 17.03120 | 37240 ft | 485 kts | 142° |
| 2026-04-22 11:29 | 52.35087 | 17.09130 | 37233 ft | 485 kts | 143° |
| 2026-04-22 11:30 | 52.29426 | 17.15116 | 37232 ft | 485 kts | 143° |
| 2026-04-22 11:30 | 52.23751 | 17.21097 | 37233 ft | 486 kts | 143° |
| 2026-04-22 11:31 | 52.18070 | 17.27068 | 37227 ft | 486 kts | 143° |
| 2026-04-22 11:31 | 52.12382 | 17.33028 | 37231 ft | 486 kts | 143° |
| 2026-04-22 11:32 | 52.06681 | 17.38981 | 37227 ft | 487 kts | 143° |
| 2026-04-22 11:32 | 52.00979 | 17.44918 | 37226 ft | 487 kts | 143° |
| 2026-04-22 11:33 | 51.95277 | 17.50837 | 37227 ft | 487 kts | 143° |
| 2026-04-22 11:33 | 51.89557 | 17.56755 | 37224 ft | 487 kts | 143° |
| 2026-04-22 11:34 | 51.83838 | 17.62657 | 37225 ft | 488 kts | 143° |
| 2026-04-22 11:34 | 51.78114 | 17.68546 | 37225 ft | 488 kts | 143° |
| 2026-04-22 11:35 | 51.72384 | 17.74420 | 37223 ft | 488 kts | 143° |
| 2026-04-22 11:35 | 51.66682 | 17.80248 | 37224 ft | 489 kts | 143° |
| 2026-04-22 11:36 | 51.60936 | 17.86106 | 37225 ft | 489 kts | 143° |
| 2026-04-22 11:36 | 51.55439 | 17.92465 | 37214 ft | 486 kts | 138° |
| 2026-04-22 11:37 | 51.50100 | 17.99126 | 37216 ft | 486 kts | 138° |
| 2026-04-22 11:37 | 51.44778 | 18.05813 | 37222 ft | 486 kts | 138° |
| 2026-04-22 11:38 | 51.39446 | 18.12479 | 37221 ft | 487 kts | 138° |
| 2026-04-22 11:38 | 51.31420 | 18.22446 | 37215 ft | 487 kts | 138° |
| 2026-04-22 11:39 | 51.26052 | 18.29083 | 37215 ft | 487 kts | 138° |
| 2026-04-22 11:39 | 51.20689 | 18.35695 | 37213 ft | 488 kts | 138° |
| 2026-04-22 11:40 | 51.15314 | 18.42303 | 37219 ft | 488 kts | 138° |
| 2026-04-22 11:40 | 51.09936 | 18.48894 | 37210 ft | 488 kts | 138° |
| 2026-04-22 11:41 | 51.04545 | 18.55481 | 37211 ft | 488 kts | 139° |
| 2026-04-22 11:41 | 50.99153 | 18.62049 | 37209 ft | 489 kts | 139° |
| 2026-04-22 11:42 | 50.93751 | 18.68610 | 37202 ft | 489 kts | 139° |
| 2026-04-22 11:42 | 50.88222 | 18.74920 | 37205 ft | 492 kts | 144° |
| 2026-04-22 11:43 | 50.82364 | 18.80564 | 37199 ft | 493 kts | 146° |
| 2026-04-22 11:43 | 50.76459 | 18.86094 | 37196 ft | 494 kts | 146° |
| 2026-04-22 11:44 | 50.70548 | 18.91607 | 37193 ft | 494 kts | 146° |
| 2026-04-22 11:44 | 50.64643 | 18.97116 | 37186 ft | 494 kts | 146° |
| 2026-04-22 11:45 | 50.58716 | 19.02639 | 37185 ft | 494 kts | 146° |
| 2026-04-22 11:45 | 50.52840 | 19.08101 | 37184 ft | 494 kts | 146° |
| 2026-04-22 11:46 | 50.46921 | 19.13584 | 37186 ft | 494 kts | 146° |
| 2026-04-22 11:46 | 50.40949 | 19.19101 | 37186 ft | 494 kts | 146° |
| 2026-04-22 11:47 | 50.35062 | 19.24523 | 37185 ft | 495 kts | 146° |
| 2026-04-22 11:47 | 50.29130 | 19.29969 | 37165 ft | 495 kts | 146° |
| 2026-04-22 11:48 | 50.23192 | 19.35405 | 37181 ft | 495 kts | 146° |
| 2026-04-22 11:48 | 50.17247 | 19.40832 | 37155 ft | 495 kts | 146° |
| 2026-04-22 11:49 | 50.11298 | 19.46247 | 37159 ft | 495 kts | 147° |
| 2026-04-22 11:49 | 50.05350 | 19.51647 | 37155 ft | 495 kts | 147° |
| 2026-04-22 11:50 | 49.99388 | 19.57044 | 37158 ft | 495 kts | 147° |
| 2026-04-22 11:50 | 49.93427 | 19.62423 | 37155 ft | 495 kts | 147° |
| 2026-04-22 11:51 | 49.87467 | 19.67785 | 37154 ft | 496 kts | 147° |
| 2026-04-22 11:51 | 49.81501 | 19.73138 | 37150 ft | 496 kts | 147° |
| 2026-04-22 11:52 | 49.76534 | 19.77582 | 37146 ft | 496 kts | 147° |
| 2026-04-22 11:52 | 49.70558 | 19.82915 | 37138 ft | 496 kts | 147° |
| 2026-04-22 11:53 | 49.64578 | 19.88235 | 37133 ft | 496 kts | 147° |
| 2026-04-22 11:53 | 49.58592 | 19.93548 | 37130 ft | 496 kts | 147° |
| 2026-04-22 11:54 | 49.52609 | 19.98843 | 37124 ft | 496 kts | 147° |
| 2026-04-22 11:54 | 49.46610 | 20.04136 | 37123 ft | 497 kts | 147° |
| 2026-04-22 11:55 | 49.40609 | 20.09416 | 37114 ft | 497 kts | 148° |
| 2026-04-22 11:55 | 49.34615 | 20.14675 | 37105 ft | 497 kts | 148° |
| 2026-04-22 11:56 | 49.29057 | 20.20868 | 37103 ft | 492 kts | 135° |
| 2026-04-22 11:56 | 49.24021 | 20.27969 | 37102 ft | 492 kts | 134° |
| 2026-04-22 11:57 | 49.19056 | 20.35170 | 37102 ft | 493 kts | 134° |
| 2026-04-22 11:57 | 49.14063 | 20.42372 | 37102 ft | 493 kts | 134° |
| 2026-04-22 11:58 | 49.09059 | 20.49529 | 37100 ft | 493 kts | 134° |
| 2026-04-22 11:58 | 49.04039 | 20.56671 | 37098 ft | 494 kts | 134° |
| 2026-04-22 11:59 | 48.99013 | 20.63804 | 37098 ft | 494 kts | 135° |
| 2026-04-22 11:59 | 48.94011 | 20.70881 | 37095 ft | 495 kts | 135° |
| 2026-04-22 12:00 | 48.88971 | 20.77998 | 37096 ft | 495 kts | 135° |
| 2026-04-22 12:00 | 48.83904 | 20.85129 | 37100 ft | 496 kts | 135° |
| 2026-04-22 12:01 | 48.78842 | 20.92230 | 37101 ft | 496 kts | 135° |
| 2026-04-22 12:01 | 48.73764 | 20.99334 | 37104 ft | 496 kts | 135° |
| 2026-04-22 12:02 | 48.68690 | 21.06415 | 37105 ft | 496 kts | 135° |
| 2026-04-22 12:02 | 48.63600 | 21.13495 | 37103 ft | 497 kts | 135° |
| 2026-04-22 12:03 | 48.58510 | 21.20554 | 37104 ft | 497 kts | 135° |
| 2026-04-22 12:03 | 48.53370 | 21.27564 | 37099 ft | 498 kts | 139° |
| 2026-04-22 12:04 | 48.47582 | 21.33342 | 37101 ft | 500 kts | 148° |
| 2026-04-22 12:04 | 48.41563 | 21.38636 | 37104 ft | 501 kts | 148° |
| 2026-04-22 12:05 | 48.35509 | 21.43867 | 37104 ft | 502 kts | 149° |
| 2026-04-22 12:05 | 48.29460 | 21.49107 | 37101 ft | 502 kts | 149° |
| 2026-04-22 12:06 | 48.23402 | 21.54364 | 37102 ft | 502 kts | 149° |
| 2026-04-22 12:06 | 48.17347 | 21.59611 | 37101 ft | 502 kts | 149° |
| 2026-04-22 12:07 | 48.11298 | 21.64836 | 37100 ft | 502 kts | 149° |
| 2026-04-22 12:07 | 48.05276 | 21.70024 | 37101 ft | 503 kts | 149° |
| 2026-04-22 12:08 | 47.99181 | 21.75260 | 37102 ft | 503 kts | 149° |
| 2026-04-22 12:08 | 47.93109 | 21.80462 | 37103 ft | 503 kts | 149° |
| 2026-04-22 12:09 | 47.87080 | 21.85613 | 37099 ft | 503 kts | 149° |
| 2026-04-22 12:09 | 47.81007 | 21.90787 | 37095 ft | 503 kts | 149° |
| 2026-04-22 12:10 | 47.74939 | 21.95944 | 37088 ft | 503 kts | 149° |
| 2026-04-22 12:10 | 47.68858 | 22.01096 | 37088 ft | 503 kts | 150° |
| 2026-04-22 12:11 | 47.62773 | 22.06238 | 37085 ft | 503 kts | 150° |
| 2026-04-22 12:11 | 47.57039 | 22.12106 | 37080 ft | 501 kts | 136° |
| 2026-04-22 12:12 | 47.52440 | 22.19802 | 37080 ft | 500 kts | 128° |
| 2026-04-22 12:12 | 47.48130 | 22.27882 | 37081 ft | 501 kts | 127° |
| 2026-04-22 12:13 | 47.43835 | 22.35992 | 37081 ft | 501 kts | 127° |
| 2026-04-22 12:13 | 47.39513 | 22.44057 | 37078 ft | 501 kts | 128° |
| 2026-04-22 12:14 | 47.35165 | 22.52100 | 37083 ft | 501 kts | 128° |
| 2026-04-22 12:14 | 47.30802 | 22.60137 | 37075 ft | 502 kts | 128° |
| 2026-04-22 12:15 | 47.26436 | 22.68161 | 37078 ft | 502 kts | 128° |
| 2026-04-22 12:15 | 47.22067 | 22.76168 | 37078 ft | 502 kts | 128° |
| 2026-04-22 12:16 | 47.17689 | 22.84170 | 37076 ft | 502 kts | 128° |
| 2026-04-22 12:16 | 47.13301 | 22.92165 | 37075 ft | 502 kts | 128° |
| 2026-04-22 12:17 | 47.08906 | 23.00150 | 37072 ft | 503 kts | 128° |
| 2026-04-22 12:17 | 47.04506 | 23.08121 | 37073 ft | 503 kts | 128° |
| 2026-04-22 12:18 | 47.00095 | 23.16089 | 37074 ft | 503 kts | 128° |
| 2026-04-22 12:18 | 46.95680 | 23.24040 | 37072 ft | 503 kts | 129° |
| 2026-04-22 12:19 | 46.91292 | 23.31918 | 37075 ft | 503 kts | 129° |
| 2026-04-22 12:19 | 46.86828 | 23.39912 | 37068 ft | 504 kts | 129° |
| 2026-04-22 12:20 | 46.82425 | 23.47774 | 37072 ft | 504 kts | 129° |
| 2026-04-22 12:20 | 46.77980 | 23.55689 | 37077 ft | 504 kts | 129° |
| 2026-04-22 12:21 | 46.73531 | 23.63588 | 37075 ft | 504 kts | 129° |
| 2026-04-22 12:21 | 46.69068 | 23.71489 | 37075 ft | 505 kts | 129° |
| 2026-04-22 12:22 | 46.64602 | 23.79373 | 37072 ft | 505 kts | 129° |
| 2026-04-22 12:22 | 46.60129 | 23.87244 | 37076 ft | 505 kts | 129° |
| 2026-04-22 12:23 | 46.55646 | 23.95110 | 37074 ft | 505 kts | 129° |
| 2026-04-22 12:23 | 46.51152 | 24.02976 | 37075 ft | 506 kts | 129° |
| 2026-04-22 12:24 | 46.46655 | 24.10826 | 37067 ft | 506 kts | 130° |
| 2026-04-22 12:24 | 46.42142 | 24.18677 | 37069 ft | 506 kts | 130° |
| 2026-04-22 12:25 | 46.37627 | 24.26511 | 37072 ft | 506 kts | 130° |
| 2026-04-22 12:25 | 46.33114 | 24.34321 | 37069 ft | 507 kts | 130° |
| 2026-04-22 12:26 | 46.28583 | 24.42140 | 37065 ft | 507 kts | 130° |
| 2026-04-22 12:26 | 46.24049 | 24.49940 | 37063 ft | 507 kts | 130° |
| 2026-04-22 12:27 | 46.19500 | 24.57745 | 37053 ft | 507 kts | 130° |
| 2026-04-22 12:27 | 46.14947 | 24.65535 | 37046 ft | 508 kts | 130° |
| 2026-04-22 12:28 | 46.10386 | 24.73316 | 37048 ft | 508 kts | 130° |
| 2026-04-22 12:28 | 46.05814 | 24.81092 | 37047 ft | 509 kts | 131° |
| 2026-04-22 12:29 | 46.01238 | 24.88855 | 37050 ft | 509 kts | 131° |
| 2026-04-22 12:29 | 45.96654 | 24.96610 | 37052 ft | 509 kts | 131° |
| 2026-04-22 12:30 | 45.89760 | 25.08232 | 37058 ft | 510 kts | 131° |
| 2026-04-22 12:31 | 45.85181 | 25.15924 | 37058 ft | 510 kts | 131° |
| 2026-04-22 12:31 | 45.80568 | 25.23653 | 37050 ft | 510 kts | 131° |
| 2026-04-22 12:32 | 45.75920 | 25.31418 | 37049 ft | 511 kts | 131° |
| 2026-04-22 12:32 | 45.68995 | 25.42946 | 37048 ft | 511 kts | 131° |
| 2026-04-22 12:33 | 45.64351 | 25.50651 | 37050 ft | 512 kts | 132° |
| 2026-04-22 12:33 | 45.59666 | 25.58402 | 37048 ft | 512 kts | 132° |
| 2026-04-22 12:34 | 45.55008 | 25.66086 | 37054 ft | 512 kts | 132° |
| 2026-04-22 12:34 | 45.50366 | 25.73725 | 37062 ft | 513 kts | 132° |
| 2026-04-22 12:35 | 45.45658 | 25.81448 | 37065 ft | 513 kts | 132° |
| 2026-04-22 12:35 | 45.40973 | 25.89114 | 37070 ft | 513 kts | 132° |
| 2026-04-22 12:36 | 45.36316 | 25.96714 | 37071 ft | 514 kts | 132° |
| 2026-04-22 12:36 | 45.31613 | 26.04366 | 37065 ft | 514 kts | 133° |
| 2026-04-22 12:37 | 45.26901 | 26.12013 | 37066 ft | 514 kts | 133° |
| 2026-04-22 12:37 | 45.22182 | 26.19651 | 37066 ft | 515 kts | 133° |
| 2026-04-22 12:38 | 45.17459 | 26.27275 | 37064 ft | 515 kts | 133° |
| 2026-04-22 12:38 | 45.12726 | 26.34893 | 37070 ft | 515 kts | 133° |
| 2026-04-22 12:39 | 45.06381 | 26.45072 | 37069 ft | 515 kts | 133° |
| 2026-04-22 12:40 | 45.01632 | 26.52668 | 37069 ft | 516 kts | 133° |
| 2026-04-22 12:40 | 44.96878 | 26.60250 | 37069 ft | 515 kts | 133° |
| 2026-04-22 12:41 | 44.92117 | 26.67823 | 37069 ft | 515 kts | 133° |
| 2026-04-22 12:41 | 44.87352 | 26.75381 | 37069 ft | 516 kts | 134° |
| 2026-04-22 12:42 | 44.82611 | 26.82882 | 37071 ft | 516 kts | 134° |
| 2026-04-22 12:42 | 44.77838 | 26.90414 | 37072 ft | 515 kts | 134° |
| 2026-04-22 12:43 | 44.73063 | 26.97927 | 37068 ft | 515 kts | 134° |
| 2026-04-22 12:43 | 44.68281 | 27.05432 | 37070 ft | 515 kts | 134° |
| 2026-04-22 12:44 | 44.63491 | 27.12930 | 37070 ft | 515 kts | 134° |
| 2026-04-22 12:44 | 44.58703 | 27.20404 | 37069 ft | 515 kts | 134° |
| 2026-04-22 12:45 | 44.53909 | 27.27868 | 37065 ft | 515 kts | 134° |
| 2026-04-22 12:45 | 44.49102 | 27.35331 | 37067 ft | 516 kts | 134° |
| 2026-04-22 12:46 | 44.44297 | 27.42773 | 37065 ft | 516 kts | 135° |
| 2026-04-22 12:46 | 44.39484 | 27.50207 | 37059 ft | 516 kts | 135° |
| 2026-04-22 12:47 | 44.34659 | 27.57639 | 37062 ft | 516 kts | 135° |
| 2026-04-22 12:47 | 44.29839 | 27.65044 | 37064 ft | 516 kts | 135° |
| 2026-04-22 12:48 | 44.25009 | 27.72445 | 37066 ft | 516 kts | 135° |
| 2026-04-22 12:48 | 44.20172 | 27.79839 | 37068 ft | 516 kts | 135° |
| 2026-04-22 12:49 | 44.15324 | 27.87227 | 37068 ft | 516 kts | 135° |
| 2026-04-22 12:49 | 44.10473 | 27.94603 | 37064 ft | 517 kts | 135° |
| 2026-04-22 12:50 | 44.05618 | 28.01964 | 37068 ft | 517 kts | 135° |
| 2026-04-22 12:50 | 44.00753 | 28.09322 | 37065 ft | 517 kts | 135° |
| 2026-04-22 12:51 | 43.95883 | 28.16669 | 37063 ft | 517 kts | 136° |
| 2026-04-22 12:51 | 43.91008 | 28.24004 | 37064 ft | 517 kts | 136° |
| 2026-04-22 12:52 | 43.86127 | 28.31328 | 37056 ft | 517 kts | 136° |
| 2026-04-22 12:52 | 43.81239 | 28.38645 | 37055 ft | 517 kts | 136° |
| 2026-04-22 12:53 | 43.76348 | 28.45947 | 37051 ft | 517 kts | 136° |
| 2026-04-22 12:53 | 43.71885 | 28.53773 | 37041 ft | 521 kts | 127° |
| 2026-04-22 12:54 | 43.67927 | 28.62196 | 37059 ft | 523 kts | 125° |
| 2026-04-22 12:54 | 43.64042 | 28.70690 | 37056 ft | 523 kts | 125° |
| 2026-04-22 12:55 | 43.60144 | 28.79174 | 37057 ft | 523 kts | 125° |
| 2026-04-22 12:55 | 43.56221 | 28.87640 | 37060 ft | 523 kts | 126° |
| 2026-04-22 12:56 | 43.52289 | 28.96085 | 37063 ft | 524 kts | 126° |
| 2026-04-22 12:56 | 43.48354 | 29.04510 | 37063 ft | 523 kts | 126° |
| 2026-04-22 12:57 | 43.44407 | 29.12938 | 37061 ft | 524 kts | 126° |
| 2026-04-22 12:57 | 43.40454 | 29.21355 | 37064 ft | 524 kts | 126° |
| 2026-04-22 12:58 | 43.36495 | 29.29762 | 37064 ft | 524 kts | 126° |
| 2026-04-22 12:58 | 43.32528 | 29.38161 | 37065 ft | 524 kts | 126° |
| 2026-04-22 12:59 | 43.28550 | 29.46561 | 37063 ft | 524 kts | 126° |
| 2026-04-22 12:59 | 43.24567 | 29.54945 | 37068 ft | 525 kts | 127° |
| 2026-04-22 13:00 | 43.20576 | 29.63323 | 37071 ft | 525 kts | 127° |
| 2026-04-22 13:00 | 43.16578 | 29.71693 | 37063 ft | 525 kts | 127° |
| 2026-04-22 13:01 | 43.12595 | 29.80007 | 37065 ft | 526 kts | 127° |
| 2026-04-22 13:01 | 43.08580 | 29.88365 | 37057 ft | 526 kts | 127° |
| 2026-04-22 13:02 | 43.04552 | 29.96725 | 37062 ft | 526 kts | 127° |
| 2026-04-22 13:02 | 43.00497 | 30.05118 | 37057 ft | 526 kts | 127° |
| 2026-04-22 13:03 | 42.96484 | 30.13400 | 37061 ft | 527 kts | 127° |
| 2026-04-22 13:03 | 42.92432 | 30.21740 | 37057 ft | 527 kts | 127° |
| 2026-04-22 13:04 | 42.88375 | 30.30066 | 37064 ft | 527 kts | 127° |
| 2026-04-22 13:04 | 42.84312 | 30.38384 | 37055 ft | 527 kts | 128° |
| 2026-04-22 13:05 | 42.80239 | 30.46697 | 37061 ft | 528 kts | 128° |
| 2026-04-22 13:05 | 42.76200 | 30.55045 | 37058 ft | 530 kts | 124° |
| 2026-04-22 13:06 | 42.73488 | 30.64391 | 37064 ft | 537 kts | 103° |
| 2026-04-22 13:06 | 42.72273 | 30.74429 | 37060 ft | 538 kts | 99° |
| 2026-04-22 13:07 | 42.71303 | 30.84528 | 37060 ft | 539 kts | 99° |
| 2026-04-22 13:07 | 42.70322 | 30.94628 | 37061 ft | 538 kts | 99° |
| 2026-04-22 13:08 | 42.69294 | 31.04704 | 37061 ft | 539 kts | 99° |
| 2026-04-22 13:08 | 42.68238 | 31.14785 | 37058 ft | 539 kts | 100° |
| 2026-04-22 13:09 | 42.67170 | 31.24878 | 37058 ft | 540 kts | 100° |
| 2026-04-22 13:09 | 42.66102 | 31.34901 | 37057 ft | 540 kts | 100° |
| 2026-04-22 13:10 | 42.65011 | 31.45060 | 37059 ft | 540 kts | 100° |
| 2026-04-22 13:10 | 42.63926 | 31.55089 | 37053 ft | 540 kts | 100° |
| 2026-04-22 13:11 | 42.62825 | 31.65173 | 37054 ft | 540 kts | 100° |
| 2026-04-22 13:11 | 42.61714 | 31.75266 | 37052 ft | 540 kts | 101° |
| 2026-04-22 13:12 | 42.60594 | 31.85357 | 37050 ft | 541 kts | 101° |
| 2026-04-22 13:12 | 42.59465 | 31.95445 | 37048 ft | 541 kts | 101° |
| 2026-04-22 13:13 | 42.58332 | 32.05534 | 37047 ft | 541 kts | 101° |
| 2026-04-22 13:13 | 42.57197 | 32.15629 | 37046 ft | 541 kts | 101° |
| 2026-04-22 13:14 | 42.56040 | 32.25724 | 37040 ft | 542 kts | 101° |
| 2026-04-22 13:14 | 42.54872 | 32.35812 | 37041 ft | 542 kts | 101° |
| 2026-04-22 13:15 | 42.53694 | 32.45916 | 37040 ft | 542 kts | 101° |
| 2026-04-22 13:15 | 42.52509 | 32.56002 | 37038 ft | 542 kts | 101° |
| 2026-04-22 13:16 | 42.51316 | 32.66081 | 37038 ft | 542 kts | 102° |
| 2026-04-22 13:16 | 42.50113 | 32.76166 | 37034 ft | 542 kts | 102° |
| 2026-04-22 13:17 | 42.48901 | 32.86247 | 37031 ft | 542 kts | 102° |
| 2026-04-22 13:17 | 42.47681 | 32.96318 | 37034 ft | 542 kts | 102° |
| 2026-04-22 13:18 | 42.46452 | 33.06382 | 37031 ft | 542 kts | 102° |
| 2026-04-22 13:18 | 42.45217 | 33.16447 | 37033 ft | 542 kts | 102° |
| 2026-04-22 13:19 | 42.43970 | 33.26516 | 37032 ft | 542 kts | 102° |
| 2026-04-22 13:19 | 42.42717 | 33.36515 | 37032 ft | 542 kts | 102° |
| 2026-04-22 13:20 | 42.41452 | 33.46576 | 37033 ft | 543 kts | 102° |
| 2026-04-22 13:20 | 42.40178 | 33.56635 | 37030 ft | 543 kts | 102° |
| 2026-04-22 13:21 | 42.38889 | 33.66707 | 37026 ft | 543 kts | 102° |
| 2026-04-22 13:21 | 42.37595 | 33.76765 | 37027 ft | 543 kts | 102° |
| 2026-04-22 13:22 | 42.36293 | 33.86821 | 37031 ft | 542 kts | 102° |
| 2026-04-22 13:22 | 42.34993 | 33.96854 | 37035 ft | 542 kts | 102° |
| 2026-04-22 13:23 | 42.33681 | 34.06875 | 37026 ft | 541 kts | 102° |
| 2026-04-22 13:23 | 42.32359 | 34.16882 | 37026 ft | 541 kts | 102° |
| 2026-04-22 13:24 | 42.31255 | 34.25199 | 37028 ft | 540 kts | 103° |
| 2026-04-22 13:24 | 42.29924 | 34.35171 | 37026 ft | 540 kts | 103° |
| 2026-04-22 13:25 | 42.28588 | 34.45145 | 37027 ft | 539 kts | 103° |
| 2026-04-22 13:25 | 42.27239 | 34.55097 | 37022 ft | 539 kts | 103° |
| 2026-04-22 13:26 | 42.25878 | 34.65045 | 37024 ft | 538 kts | 103° |
| 2026-04-22 13:26 | 42.24514 | 34.74968 | 37023 ft | 537 kts | 103° |
| 2026-04-22 13:27 | 42.23148 | 34.84868 | 37018 ft | 537 kts | 103° |
| 2026-04-22 13:27 | 42.21767 | 34.94761 | 37018 ft | 536 kts | 103° |
| 2026-04-22 13:28 | 42.20375 | 35.04644 | 37018 ft | 536 kts | 103° |
| 2026-04-22 13:28 | 42.18980 | 35.14499 | 37016 ft | 535 kts | 103° |
| 2026-04-22 13:29 | 42.17578 | 35.24345 | 37008 ft | 535 kts | 103° |
| 2026-04-22 13:29 | 42.16167 | 35.34191 | 37005 ft | 534 kts | 103° |
| 2026-04-22 13:30 | 42.14750 | 35.44019 | 37004 ft | 534 kts | 104° |
| 2026-04-22 13:30 | 42.13336 | 35.53773 | 37010 ft | 534 kts | 104° |
| 2026-04-22 13:31 | 42.11903 | 35.63637 | 36994 ft | 533 kts | 104° |
| 2026-04-22 13:31 | 42.10478 | 35.73374 | 37008 ft | 533 kts | 104° |
| 2026-04-22 13:32 | 42.09037 | 35.83148 | 36999 ft | 533 kts | 104° |
| 2026-04-22 13:32 | 42.07587 | 35.92919 | 36997 ft | 532 kts | 104° |
| 2026-04-22 13:33 | 42.06130 | 36.02679 | 36995 ft | 532 kts | 104° |
| 2026-04-22 13:33 | 42.04665 | 36.12432 | 36995 ft | 531 kts | 104° |
| 2026-04-22 13:34 | 42.03194 | 36.22164 | 36996 ft | 531 kts | 104° |
| 2026-04-22 13:34 | 42.01713 | 36.31906 | 36994 ft | 531 kts | 104° |
| 2026-04-22 13:35 | 42.00228 | 36.41622 | 36996 ft | 531 kts | 104° |
| 2026-04-22 13:35 | 41.98733 | 36.51334 | 36994 ft | 531 kts | 104° |
| 2026-04-22 13:36 | 41.97231 | 36.61042 | 36992 ft | 531 kts | 104° |
| 2026-04-22 13:36 | 41.95719 | 36.70751 | 36995 ft | 531 kts | 105° |
| 2026-04-22 13:37 | 41.94200 | 36.80452 | 36989 ft | 531 kts | 105° |
| 2026-04-22 13:37 | 41.92673 | 36.90149 | 36992 ft | 531 kts | 105° |
| 2026-04-22 13:38 | 41.91138 | 36.99838 | 36990 ft | 531 kts | 105° |
| 2026-04-22 13:38 | 41.90323 | 37.09721 | 36993 ft | 534 kts | 94° |
| 2026-04-22 13:38 | 41.90202 | 37.14702 | 36987 ft | 535 kts | 93° |
| 2026-04-22 13:39 | 41.90064 | 37.24680 | 36986 ft | 535 kts | 92° |
| 2026-04-22 13:39 | 41.89942 | 37.34607 | 36988 ft | 535 kts | 92° |
| 2026-04-22 13:40 | 41.89792 | 37.44593 | 36987 ft | 535 kts | 92° |
| 2026-04-22 13:40 | 41.89622 | 37.54568 | 36985 ft | 535 kts | 93° |
| 2026-04-22 13:41 | 41.89440 | 37.64553 | 36983 ft | 535 kts | 93° |
| 2026-04-22 13:41 | 41.89250 | 37.74527 | 36990 ft | 535 kts | 93° |
| 2026-04-22 13:42 | 41.89051 | 37.84501 | 36987 ft | 535 kts | 93° |
| 2026-04-22 13:42 | 41.88845 | 37.94472 | 36986 ft | 534 kts | 93° |
| 2026-04-22 13:43 | 41.88630 | 38.04439 | 36988 ft | 534 kts | 93° |
| 2026-04-22 13:43 | 41.88406 | 38.14417 | 36994 ft | 535 kts | 93° |
| 2026-04-22 13:44 | 41.88174 | 38.24378 | 36984 ft | 534 kts | 93° |
| 2026-04-22 13:44 | 41.87934 | 38.34333 | 36984 ft | 534 kts | 93° |
| 2026-04-22 13:45 | 41.87684 | 38.44293 | 36986 ft | 534 kts | 93° |
| 2026-04-22 13:45 | 41.87426 | 38.54264 | 36980 ft | 534 kts | 93° |
| 2026-04-22 13:46 | 41.87160 | 38.64215 | 36985 ft | 534 kts | 94° |
| 2026-04-22 13:46 | 41.86885 | 38.74169 | 36984 ft | 534 kts | 94° |
| 2026-04-22 13:47 | 41.86602 | 38.84122 | 36985 ft | 534 kts | 94° |
| 2026-04-22 13:47 | 41.86310 | 38.94070 | 36983 ft | 534 kts | 94° |
| 2026-04-22 13:48 | 41.86009 | 39.04022 | 36983 ft | 534 kts | 94° |
| 2026-04-22 13:48 | 41.85699 | 39.13972 | 36972 ft | 534 kts | 94° |
| 2026-04-22 13:49 | 41.85382 | 39.23916 | 36981 ft | 534 kts | 94° |
| 2026-04-22 13:49 | 41.85055 | 39.33863 | 36981 ft | 534 kts | 94° |
| 2026-04-22 13:50 | 41.84720 | 39.43811 | 36972 ft | 534 kts | 94° |
| 2026-04-22 13:50 | 41.84379 | 39.53692 | 36972 ft | 534 kts | 94° |
| 2026-04-22 13:51 | 41.84027 | 39.63702 | 36974 ft | 534 kts | 94° |
| 2026-04-22 13:51 | 41.83668 | 39.73583 | 36973 ft | 534 kts | 94° |
| 2026-04-22 13:52 | 41.83297 | 39.83588 | 36971 ft | 534 kts | 94° |
| 2026-04-22 13:52 | 41.82920 | 39.93526 | 36972 ft | 534 kts | 94° |
| 2026-04-22 13:53 | 41.82538 | 40.03396 | 36984 ft | 533 kts | 95° |
| 2026-04-22 13:53 | 41.82144 | 40.13333 | 36971 ft | 533 kts | 95° |
| 2026-04-22 13:54 | 41.81745 | 40.23252 | 36982 ft | 533 kts | 95° |
| 2026-04-22 13:54 | 41.81328 | 40.33241 | 36968 ft | 533 kts | 95° |
| 2026-04-22 13:55 | 41.80906 | 40.43156 | 36981 ft | 533 kts | 95° |
| 2026-04-22 13:55 | 41.80480 | 40.53005 | 36979 ft | 533 kts | 95° |
| 2026-04-22 13:56 | 41.80043 | 40.62914 | 36978 ft | 532 kts | 95° |
| 2026-04-22 13:56 | 41.79594 | 40.72808 | 36974 ft | 532 kts | 95° |
| 2026-04-22 13:57 | 41.79105 | 40.82693 | 36974 ft | 532 kts | 95° |
| 2026-04-22 13:57 | 41.78605 | 40.92571 | 36973 ft | 531 kts | 95° |
| 2026-04-22 13:58 | 41.78102 | 41.02450 | 36972 ft | 531 kts | 95° |
| 2026-04-22 13:58 | 41.77594 | 41.12314 | 36972 ft | 531 kts | 95° |
| 2026-04-22 13:59 | 41.77079 | 41.22168 | 36975 ft | 531 kts | 95° |
| 2026-04-22 13:59 | 41.76555 | 41.32029 | 36981 ft | 531 kts | 95° |
| 2026-04-22 14:00 | 41.76022 | 41.41894 | 36987 ft | 531 kts | 96° |
| 2026-04-22 14:00 | 41.75482 | 41.51740 | 36987 ft | 530 kts | 96° |
| 2026-04-22 14:01 | 41.74932 | 41.61601 | 36991 ft | 530 kts | 96° |
| 2026-04-22 14:01 | 41.74374 | 41.71450 | 36988 ft | 531 kts | 96° |
| 2026-04-22 14:02 | 41.73809 | 41.81285 | 36986 ft | 530 kts | 96° |
| 2026-04-22 14:02 | 41.73233 | 41.91143 | 36978 ft | 530 kts | 96° |
| 2026-04-22 14:03 | 41.72650 | 42.00975 | 36966 ft | 530 kts | 96° |
| 2026-04-22 14:03 | 41.72061 | 42.10814 | 36957 ft | 530 kts | 96° |
| 2026-04-22 14:04 | 41.71466 | 42.20653 | 36954 ft | 530 kts | 96° |
| 2026-04-22 14:04 | 41.70852 | 42.30481 | 36942 ft | 530 kts | 96° |
| 2026-04-22 14:05 | 41.70232 | 42.40326 | 36944 ft | 531 kts | 96° |
| 2026-04-22 14:06 | 41.69289 | 42.55090 | 36938 ft | 531 kts | 96° |
| 2026-04-22 14:06 | 41.68649 | 42.64936 | 36937 ft | 531 kts | 96° |
| 2026-04-22 14:07 | 41.68001 | 42.74786 | 36935 ft | 532 kts | 96° |
| 2026-04-22 14:07 | 41.67342 | 42.84648 | 36930 ft | 532 kts | 96° |
| 2026-04-22 14:08 | 41.66681 | 42.94503 | 36924 ft | 532 kts | 96° |
| 2026-04-22 14:08 | 41.66002 | 43.04345 | 36926 ft | 531 kts | 96° |
| 2026-04-22 14:09 | 41.65432 | 43.12509 | 36929 ft | 531 kts | 96° |
| 2026-04-22 14:09 | 41.64742 | 43.22324 | 36931 ft | 530 kts | 97° |
| 2026-04-22 14:10 | 41.64045 | 43.32119 | 36927 ft | 529 kts | 97° |
| 2026-04-22 14:10 | 41.63339 | 43.41924 | 36937 ft | 529 kts | 97° |
| 2026-04-22 14:11 | 41.62625 | 43.51708 | 36940 ft | 529 kts | 97° |
| 2026-04-22 14:11 | 41.61905 | 43.61494 | 36944 ft | 529 kts | 97° |
| 2026-04-22 14:12 | 41.61182 | 43.71276 | 36943 ft | 529 kts | 97° |
| 2026-04-22 14:12 | 41.60451 | 43.81043 | 36942 ft | 528 kts | 97° |
| 2026-04-22 14:13 | 41.59713 | 43.90789 | 36941 ft | 527 kts | 97° |
| 2026-04-22 14:13 | 41.58966 | 44.00520 | 36934 ft | 527 kts | 97° |
| 2026-04-22 14:14 | 41.58211 | 44.10254 | 36933 ft | 526 kts | 97° |
| 2026-04-22 14:14 | 41.57435 | 44.19961 | 36923 ft | 525 kts | 98° |
| 2026-04-22 14:15 | 41.55685 | 44.29362 | 36928 ft | 521 kts | 109° |
| 2026-04-22 14:15 | 41.53447 | 44.38560 | 36925 ft | 521 kts | 110° |
| 2026-04-22 14:16 | 41.51137 | 44.47733 | 36926 ft | 521 kts | 110° |
| 2026-04-22 14:16 | 41.48848 | 44.56843 | 36916 ft | 522 kts | 110° |
| 2026-04-22 14:17 | 41.46546 | 44.66032 | 36907 ft | 522 kts | 110° |
| 2026-04-22 14:17 | 41.44246 | 44.75206 | 36902 ft | 522 kts | 110° |
| 2026-04-22 14:18 | 41.41937 | 44.84377 | 36897 ft | 522 kts | 110° |
| 2026-04-22 14:18 | 41.39619 | 44.93548 | 36893 ft | 522 kts | 110° |
| 2026-04-22 14:19 | 41.37291 | 45.02717 | 36889 ft | 522 kts | 110° |
| 2026-04-22 14:19 | 41.34961 | 45.11879 | 36885 ft | 522 kts | 110° |
| 2026-04-22 14:20 | 41.31442 | 45.25609 | 36885 ft | 522 kts | 111° |
| 2026-04-22 14:20 | 41.29087 | 45.34742 | 36875 ft | 522 kts | 111° |
| 2026-04-22 14:21 | 41.25545 | 45.48431 | 36872 ft | 522 kts | 111° |
| 2026-04-22 14:22 | 41.21993 | 45.62087 | 36867 ft | 522 kts | 111° |
| 2026-04-22 14:23 | 41.18422 | 45.75733 | 36869 ft | 521 kts | 111° |
| 2026-04-22 14:23 | 41.16023 | 45.84800 | 36871 ft | 521 kts | 111° |
| 2026-04-22 14:24 | 41.13619 | 45.93862 | 36875 ft | 520 kts | 111° |
| 2026-04-22 14:24 | 41.11212 | 46.02915 | 36877 ft | 520 kts | 111° |
| 2026-04-22 14:25 | 41.08801 | 46.11949 | 36882 ft | 520 kts | 111° |
| 2026-04-22 14:25 | 41.06401 | 46.20915 | 36879 ft | 520 kts | 111° |
| 2026-04-22 14:26 | 41.03977 | 46.29934 | 36883 ft | 519 kts | 111° |
| 2026-04-22 14:26 | 41.01566 | 46.38941 | 36881 ft | 519 kts | 111° |
| 2026-04-22 14:27 | 40.99160 | 46.47950 | 36882 ft | 519 kts | 111° |
| 2026-04-22 14:27 | 40.96744 | 46.56956 | 36881 ft | 518 kts | 111° |
| 2026-04-22 14:28 | 40.94324 | 46.65933 | 36881 ft | 518 kts | 111° |
| 2026-04-22 14:28 | 40.91926 | 46.74920 | 36878 ft | 518 kts | 108° |
| 2026-04-22 14:29 | 40.90857 | 46.84318 | 36890 ft | 519 kts | 89° |
| 2026-04-22 14:29 | 40.91224 | 46.89054 | 36899 ft | 518 kts | 78° |
| 2026-04-22 14:29 | 40.91965 | 46.93715 | 36897 ft | 518 kts | 76° |
| 2026-04-22 14:30 | 40.93691 | 47.02975 | 36879 ft | 519 kts | 75° |
| 2026-04-22 14:30 | 40.95467 | 47.12230 | 36881 ft | 519 kts | 75° |
| 2026-04-22 14:31 | 40.97197 | 47.21496 | 36888 ft | 519 kts | 76° |
| 2026-04-22 14:31 | 40.98892 | 47.30764 | 36890 ft | 518 kts | 76° |
| 2026-04-22 14:32 | 41.00577 | 47.40047 | 36889 ft | 519 kts | 76° |
| 2026-04-22 14:32 | 41.02257 | 47.49351 | 36882 ft | 519 kts | 76° |
| 2026-04-22 14:33 | 41.03930 | 47.58647 | 36879 ft | 520 kts | 76° |
| 2026-04-22 14:33 | 41.05598 | 47.67962 | 36877 ft | 520 kts | 76° |
| 2026-04-22 14:34 | 41.07260 | 47.77296 | 36878 ft | 521 kts | 76° |
| 2026-04-22 14:34 | 41.08920 | 47.86649 | 36876 ft | 521 kts | 76° |
| 2026-04-22 14:35 | 41.10804 | 47.95922 | 36885 ft | 520 kts | 67° |
| 2026-04-22 14:35 | 41.14290 | 48.04165 | 36862 ft | 516 kts | 53° |
| 2026-04-22 14:36 | 41.18484 | 48.11904 | 36870 ft | 518 kts | 51° |
| 2026-04-22 14:36 | 41.22767 | 48.19573 | 36855 ft | 516 kts | 51° |
| 2026-04-22 14:37 | 41.27024 | 48.27258 | 36847 ft | 516 kts | 51° |
| 2026-04-22 14:37 | 41.31252 | 48.34968 | 36849 ft | 517 kts | 52° |
| 2026-04-22 14:38 | 41.35474 | 48.42702 | 36844 ft | 516 kts | 52° |
| 2026-04-22 14:38 | 41.39688 | 48.50441 | 36847 ft | 516 kts | 52° |
| 2026-04-22 14:39 | 41.43908 | 48.58190 | 36848 ft | 516 kts | 51° |
| 2026-04-22 14:39 | 41.48195 | 48.65867 | 36853 ft | 516 kts | 51° |
| 2026-04-22 14:40 | 41.54618 | 48.77402 | 36860 ft | 517 kts | 53° |
| 2026-04-22 14:40 | 41.58633 | 48.85363 | 36865 ft | 517 kts | 55° |
| 2026-04-22 14:41 | 41.62583 | 48.93399 | 36865 ft | 517 kts | 54° |
| 2026-04-22 14:41 | 41.66560 | 49.01409 | 36869 ft | 517 kts | 54° |
| 2026-04-22 14:42 | 41.70555 | 49.09404 | 36866 ft | 517 kts | 54° |
| 2026-04-22 14:42 | 41.74557 | 49.17414 | 36871 ft | 518 kts | 54° |
| 2026-04-22 14:43 | 41.78558 | 49.25445 | 36876 ft | 518 kts | 54° |
| 2026-04-22 14:43 | 41.82566 | 49.33468 | 36873 ft | 518 kts | 53° |
| 2026-04-22 14:44 | 41.86805 | 49.41265 | 36875 ft | 518 kts | 51° |
| 2026-04-22 14:44 | 41.91126 | 49.49010 | 36877 ft | 518 kts | 51° |
| 2026-04-22 14:45 | 41.95409 | 49.56798 | 36878 ft | 518 kts | 52° |
| 2026-04-22 14:45 | 41.99664 | 49.64628 | 36882 ft | 519 kts | 52° |
| 2026-04-22 14:46 | 42.03907 | 49.72481 | 36884 ft | 519 kts | 52° |
| 2026-04-22 14:46 | 42.08145 | 49.80341 | 36887 ft | 519 kts | 52° |
| 2026-04-22 14:47 | 42.12381 | 49.88214 | 36886 ft | 519 kts | 52° |
| 2026-04-22 14:47 | 42.16613 | 49.96099 | 36894 ft | 519 kts | 52° |
| 2026-04-22 14:48 | 42.20837 | 50.03990 | 36899 ft | 519 kts | 52° |
| 2026-04-22 14:48 | 42.25035 | 50.11852 | 36900 ft | 519 kts | 52° |
| 2026-04-22 14:49 | 42.29279 | 50.19821 | 36899 ft | 520 kts | 52° |
| 2026-04-22 14:49 | 42.33491 | 50.27751 | 36900 ft | 520 kts | 52° |
| 2026-04-22 14:50 | 42.37703 | 50.35704 | 36902 ft | 520 kts | 52° |
| 2026-04-22 14:50 | 42.41904 | 50.43655 | 36906 ft | 520 kts | 53° |
| 2026-04-22 14:51 | 42.46146 | 50.51574 | 36904 ft | 519 kts | 51° |
| 2026-04-22 14:51 | 42.50589 | 50.59278 | 36910 ft | 519 kts | 50° |
| 2026-04-22 14:52 | 42.55031 | 50.66916 | 36910 ft | 519 kts | 50° |
| 2026-04-22 14:52 | 42.59465 | 50.74645 | 36911 ft | 519 kts | 50° |
| 2026-04-22 14:53 | 42.63880 | 50.82414 | 36913 ft | 519 kts | 50° |
| 2026-04-22 14:53 | 42.68311 | 50.90244 | 36915 ft | 520 kts | 51° |
| 2026-04-22 14:54 | 42.72685 | 50.97991 | 36915 ft | 520 kts | 51° |
| 2026-04-22 14:54 | 42.77082 | 51.05796 | 36915 ft | 520 kts | 51° |
| 2026-04-22 14:55 | 42.80764 | 51.12345 | 36915 ft | 520 kts | 51° |
| 2026-04-22 14:55 | 42.85154 | 51.20175 | 36917 ft | 520 kts | 51° |
| 2026-04-22 14:56 | 42.89541 | 51.28020 | 36918 ft | 520 kts | 51° |
| 2026-04-22 14:56 | 42.93926 | 51.35881 | 36914 ft | 520 kts | 51° |
| 2026-04-22 14:57 | 42.98300 | 51.43745 | 36916 ft | 520 kts | 51° |
| 2026-04-22 14:57 | 43.02674 | 51.51629 | 36919 ft | 520 kts | 51° |
| 2026-04-22 14:58 | 43.07046 | 51.59530 | 36915 ft | 521 kts | 51° |
| 2026-04-22 14:58 | 43.11405 | 51.67429 | 36918 ft | 521 kts | 51° |
| 2026-04-22 14:59 | 43.15767 | 51.75354 | 36911 ft | 521 kts | 51° |
| 2026-04-22 14:59 | 43.20094 | 51.83237 | 36913 ft | 521 kts | 51° |
| 2026-04-22 15:00 | 43.24447 | 51.91187 | 36910 ft | 521 kts | 52° |
| 2026-04-22 15:00 | 43.28796 | 51.99153 | 36913 ft | 522 kts | 52° |
| 2026-04-22 15:01 | 43.33133 | 52.07118 | 36909 ft | 522 kts | 52° |
| 2026-04-22 15:01 | 43.37483 | 52.15128 | 36903 ft | 522 kts | 52° |
| 2026-04-22 15:02 | 43.41818 | 52.23133 | 36902 ft | 522 kts | 52° |
| 2026-04-22 15:02 | 43.46154 | 52.31163 | 36896 ft | 522 kts | 52° |
| 2026-04-22 15:03 | 43.50480 | 52.39194 | 36897 ft | 523 kts | 52° |
| 2026-04-22 15:03 | 43.54807 | 52.47250 | 36893 ft | 523 kts | 52° |
| 2026-04-22 15:04 | 43.59130 | 52.55321 | 36897 ft | 523 kts | 52° |
| 2026-04-22 15:04 | 43.63445 | 52.63399 | 36892 ft | 523 kts | 52° |
| 2026-04-22 15:05 | 43.67759 | 52.71499 | 36894 ft | 524 kts | 52° |
| 2026-04-22 15:05 | 43.72062 | 52.79630 | 36896 ft | 524 kts | 53° |
| 2026-04-22 15:06 | 43.76351 | 52.87764 | 36894 ft | 524 kts | 53° |
| 2026-04-22 15:06 | 43.80640 | 52.95918 | 36894 ft | 524 kts | 53° |
| 2026-04-22 15:07 | 43.84924 | 53.04080 | 36895 ft | 524 kts | 53° |
| 2026-04-22 15:07 | 43.89199 | 53.12249 | 36897 ft | 524 kts | 53° |
| 2026-04-22 15:08 | 43.93471 | 53.20438 | 36903 ft | 524 kts | 53° |
| 2026-04-22 15:08 | 43.97739 | 53.28644 | 36899 ft | 524 kts | 53° |
| 2026-04-22 15:09 | 44.01994 | 53.36849 | 36897 ft | 524 kts | 53° |
| 2026-04-22 15:09 | 44.06222 | 53.45024 | 36899 ft | 524 kts | 53° |
| 2026-04-22 15:10 | 44.10500 | 53.53319 | 36899 ft | 524 kts | 53° |
| 2026-04-22 15:10 | 44.14748 | 53.61579 | 36901 ft | 525 kts | 53° |
| 2026-04-22 15:11 | 44.18959 | 53.69790 | 36899 ft | 524 kts | 53° |
| 2026-04-22 15:11 | 44.23191 | 53.78065 | 36897 ft | 525 kts | 54° |
| 2026-04-22 15:12 | 44.27422 | 53.86364 | 36898 ft | 525 kts | 54° |
| 2026-04-22 15:12 | 44.31647 | 53.94674 | 36902 ft | 525 kts | 54° |
| 2026-04-22 15:13 | 44.35868 | 54.02998 | 36900 ft | 525 kts | 54° |
| 2026-04-22 15:13 | 44.40080 | 54.11330 | 36899 ft | 525 kts | 54° |
| 2026-04-22 15:14 | 44.44286 | 54.19674 | 36897 ft | 525 kts | 54° |
| 2026-04-22 15:14 | 44.48490 | 54.28036 | 36902 ft | 525 kts | 54° |
| 2026-04-22 15:15 | 44.52685 | 54.36406 | 36900 ft | 525 kts | 54° |
| 2026-04-22 15:15 | 44.56875 | 54.44791 | 36901 ft | 525 kts | 54° |
| 2026-04-22 15:16 | 44.61056 | 54.53182 | 36901 ft | 525 kts | 54° |
| 2026-04-22 15:16 | 44.65268 | 54.61543 | 36897 ft | 525 kts | 51° |
| 2026-04-22 15:17 | 44.70332 | 54.68880 | 36899 ft | 523 kts | 42° |
| 2026-04-22 15:17 | 44.75693 | 54.75798 | 36900 ft | 523 kts | 40° |
| 2026-04-22 15:18 | 44.81091 | 54.82665 | 36901 ft | 523 kts | 41° |
| 2026-04-22 15:18 | 44.86477 | 54.89558 | 36894 ft | 523 kts | 41° |
| 2026-04-22 15:19 | 44.91850 | 54.96482 | 36900 ft | 523 kts | 41° |
| 2026-04-22 15:19 | 44.97214 | 55.03421 | 36897 ft | 523 kts | 41° |
| 2026-04-22 15:20 | 45.02575 | 55.10375 | 36902 ft | 523 kts | 41° |
| 2026-04-22 15:20 | 45.07615 | 55.17806 | 36901 ft | 524 kts | 54° |
| 2026-04-22 15:21 | 45.11007 | 55.26899 | 36900 ft | 523 kts | 68° |
| 2026-04-22 15:21 | 45.13692 | 55.36485 | 36896 ft | 524 kts | 70° |
| 2026-04-22 15:22 | 45.16281 | 55.46148 | 36897 ft | 524 kts | 70° |
| 2026-04-22 15:22 | 45.18877 | 55.55781 | 36896 ft | 524 kts | 70° |
| 2026-04-22 15:23 | 45.21500 | 55.65453 | 36894 ft | 524 kts | 70° |
| 2026-04-22 15:23 | 45.24115 | 55.75100 | 36889 ft | 524 kts | 70° |
| 2026-04-22 15:24 | 45.26726 | 55.84772 | 36893 ft | 524 kts | 70° |
| 2026-04-22 15:24 | 45.29323 | 55.94438 | 36892 ft | 524 kts | 70° |
| 2026-04-22 15:25 | 45.31912 | 56.04113 | 36890 ft | 524 kts | 70° |
| 2026-04-22 15:25 | 45.34497 | 56.13816 | 36895 ft | 524 kts | 70° |
| 2026-04-22 15:26 | 45.37070 | 56.23514 | 36893 ft | 524 kts | 70° |
| 2026-04-22 15:26 | 45.39636 | 56.33220 | 36892 ft | 524 kts | 70° |
| 2026-04-22 15:27 | 45.42176 | 56.42872 | 36893 ft | 524 kts | 70° |
| 2026-04-22 15:27 | 45.44741 | 56.52656 | 36891 ft | 525 kts | 70° |
| 2026-04-22 15:28 | 45.47268 | 56.62337 | 36893 ft | 525 kts | 70° |
| 2026-04-22 15:28 | 45.49803 | 56.72091 | 36892 ft | 525 kts | 70° |
| 2026-04-22 15:29 | 45.52331 | 56.81855 | 36893 ft | 525 kts | 71° |
| 2026-04-22 15:30 | 45.55698 | 56.94928 | 36890 ft | 525 kts | 71° |
| 2026-04-22 15:30 | 45.58614 | 57.06305 | 36891 ft | 525 kts | 71° |
| 2026-04-22 15:31 | 45.61114 | 57.16109 | 36891 ft | 526 kts | 71° |
| 2026-04-22 15:31 | 45.63609 | 57.25929 | 36888 ft | 525 kts | 71° |
| 2026-04-22 15:32 | 45.66093 | 57.35752 | 36887 ft | 526 kts | 71° |
| 2026-04-22 15:32 | 45.68567 | 57.45577 | 36886 ft | 526 kts | 71° |
| 2026-04-22 15:33 | 45.71038 | 57.55429 | 36887 ft | 526 kts | 71° |
| 2026-04-22 15:33 | 45.73499 | 57.65287 | 36884 ft | 526 kts | 71° |
| 2026-04-22 15:34 | 45.75956 | 57.75167 | 36885 ft | 527 kts | 71° |
| 2026-04-22 15:34 | 45.78404 | 57.85060 | 36888 ft | 527 kts | 71° |
| 2026-04-22 15:35 | 45.80432 | 57.93291 | 36888 ft | 527 kts | 71° |
| 2026-04-22 15:35 | 45.83278 | 58.04889 | 36889 ft | 528 kts | 71° |
| 2026-04-22 15:36 | 45.85701 | 58.14810 | 36884 ft | 528 kts | 72° |
| 2026-04-22 15:36 | 45.88120 | 58.24754 | 36889 ft | 528 kts | 72° |
| 2026-04-22 15:37 | 45.90533 | 58.34721 | 36886 ft | 528 kts | 72° |
| 2026-04-22 15:37 | 45.92932 | 58.44678 | 36891 ft | 528 kts | 72° |
| 2026-04-22 15:38 | 45.95324 | 58.54645 | 36889 ft | 528 kts | 72° |
| 2026-04-22 15:38 | 45.98898 | 58.69625 | 36889 ft | 528 kts | 72° |
| 2026-04-22 15:39 | 46.00870 | 58.77933 | 36888 ft | 528 kts | 72° |
| 2026-04-22 15:39 | 46.03621 | 58.89580 | 36889 ft | 529 kts | 72° |
| 2026-04-22 15:40 | 46.05597 | 58.97981 | 36887 ft | 529 kts | 73° |
| 2026-04-22 15:40 | 46.07947 | 59.08014 | 36890 ft | 529 kts | 73° |
| 2026-04-22 15:41 | 46.10290 | 59.18067 | 36890 ft | 530 kts | 73° |
| 2026-04-22 15:41 | 46.12627 | 59.28134 | 36890 ft | 530 kts | 73° |
| 2026-04-22 15:42 | 46.14958 | 59.38228 | 36890 ft | 531 kts | 73° |
| 2026-04-22 15:42 | 46.17280 | 59.48327 | 36884 ft | 531 kts | 73° |
| 2026-04-22 15:43 | 46.19598 | 59.58454 | 36884 ft | 531 kts | 73° |
| 2026-04-22 15:43 | 46.21908 | 59.68599 | 36882 ft | 532 kts | 73° |
| 2026-04-22 15:44 | 46.24210 | 59.78746 | 36882 ft | 532 kts | 74° |
| 2026-04-22 15:44 | 46.26474 | 59.88859 | 36881 ft | 532 kts | 74° |
| 2026-04-22 15:45 | 46.28741 | 59.99055 | 36880 ft | 533 kts | 74° |
| 2026-04-22 15:45 | 46.31018 | 60.09321 | 36877 ft | 533 kts | 74° |
| 2026-04-22 15:46 | 46.33274 | 60.19535 | 36877 ft | 533 kts | 75° |
| 2026-04-22 15:46 | 46.35508 | 60.29693 | 36876 ft | 534 kts | 75° |
| 2026-04-22 15:47 | 46.37749 | 60.39937 | 36874 ft | 534 kts | 75° |
| 2026-04-22 15:47 | 46.39984 | 60.50205 | 36874 ft | 534 kts | 75° |
| 2026-04-22 15:48 | 46.42207 | 60.60467 | 36875 ft | 534 kts | 75° |
| 2026-04-22 15:48 | 46.44426 | 60.70760 | 36877 ft | 535 kts | 75° |
| 2026-04-22 15:49 | 46.46636 | 60.81063 | 36873 ft | 535 kts | 75° |
| 2026-04-22 15:49 | 46.48838 | 60.91382 | 36873 ft | 535 kts | 76° |
| 2026-04-22 15:50 | 46.51031 | 61.01711 | 36871 ft | 536 kts | 76° |
| 2026-04-22 15:50 | 46.53217 | 61.12059 | 36871 ft | 536 kts | 76° |
| 2026-04-22 15:51 | 46.55394 | 61.22418 | 36874 ft | 536 kts | 76° |
| 2026-04-22 15:51 | 46.57564 | 61.32792 | 36871 ft | 537 kts | 76° |
| 2026-04-22 15:52 | 46.59726 | 61.43188 | 36871 ft | 537 kts | 76° |
| 2026-04-22 15:52 | 46.61880 | 61.53594 | 36868 ft | 538 kts | 76° |
| 2026-04-22 15:53 | 46.64024 | 61.64007 | 36870 ft | 538 kts | 76° |
| 2026-04-22 15:53 | 46.66163 | 61.74450 | 36870 ft | 538 kts | 77° |
| 2026-04-22 15:54 | 46.68292 | 61.84899 | 36866 ft | 539 kts | 77° |
| 2026-04-22 15:54 | 46.70414 | 61.95371 | 36864 ft | 539 kts | 77° |
| 2026-04-22 15:55 | 46.72528 | 62.05854 | 36864 ft | 539 kts | 77° |
| 2026-04-22 15:55 | 46.74631 | 62.16337 | 36862 ft | 539 kts | 77° |
| 2026-04-22 15:56 | 46.76712 | 62.26768 | 36864 ft | 539 kts | 77° |
| 2026-04-22 15:56 | 46.78796 | 62.37267 | 36863 ft | 539 kts | 77° |
| 2026-04-22 15:57 | 46.80873 | 62.47792 | 36861 ft | 539 kts | 78° |
| 2026-04-22 15:57 | 46.82941 | 62.58323 | 36877 ft | 540 kts | 78° |
| 2026-04-22 15:58 | 46.85005 | 62.68866 | 36857 ft | 540 kts | 78° |
| 2026-04-22 15:58 | 46.87050 | 62.79412 | 36856 ft | 540 kts | 78° |
| 2026-04-22 15:59 | 46.89090 | 62.89987 | 36853 ft | 540 kts | 78° |
| 2026-04-22 15:59 | 46.91120 | 63.00557 | 36846 ft | 540 kts | 78° |
| 2026-04-22 16:00 | 46.93143 | 63.11141 | 36848 ft | 540 kts | 78° |
| 2026-04-22 16:00 | 46.95157 | 63.21742 | 36846 ft | 541 kts | 78° |
| 2026-04-22 16:01 | 46.97162 | 63.32358 | 36841 ft | 541 kts | 78° |
| 2026-04-22 16:01 | 46.99156 | 63.42975 | 36834 ft | 541 kts | 78° |
| 2026-04-22 16:02 | 47.01141 | 63.53603 | 36841 ft | 541 kts | 79° |
| 2026-04-22 16:02 | 47.03119 | 63.64256 | 36840 ft | 541 kts | 79° |
| 2026-04-22 16:03 | 47.05088 | 63.74915 | 36837 ft | 542 kts | 79° |
| 2026-04-22 16:03 | 47.07033 | 63.85510 | 36833 ft | 542 kts | 79° |
| 2026-04-22 16:04 | 47.08982 | 63.96187 | 36830 ft | 542 kts | 79° |
| 2026-04-22 16:04 | 47.10923 | 64.06890 | 36831 ft | 543 kts | 79° |
| 2026-04-22 16:05 | 47.12853 | 64.17593 | 36826 ft | 543 kts | 79° |
| 2026-04-22 16:05 | 47.14780 | 64.28333 | 36821 ft | 543 kts | 79° |
| 2026-04-22 16:06 | 47.16696 | 64.39074 | 36817 ft | 544 kts | 79° |
| 2026-04-22 16:06 | 47.18601 | 64.49822 | 36814 ft | 544 kts | 79° |
| 2026-04-22 16:07 | 47.20506 | 64.60601 | 36809 ft | 544 kts | 79° |
| 2026-04-22 16:07 | 47.22403 | 64.71382 | 36810 ft | 545 kts | 80° |
| 2026-04-22 16:08 | 47.24289 | 64.82176 | 36812 ft | 545 kts | 80° |
| 2026-04-22 16:08 | 47.26166 | 64.92978 | 36802 ft | 545 kts | 80° |
| 2026-04-22 16:09 | 47.28038 | 65.03805 | 36803 ft | 546 kts | 80° |
| 2026-04-22 16:09 | 47.29900 | 65.14647 | 36799 ft | 546 kts | 80° |
| 2026-04-22 16:10 | 47.31733 | 65.25432 | 36801 ft | 546 kts | 80° |
| 2026-04-22 16:10 | 47.33582 | 65.36370 | 36790 ft | 546 kts | 80° |
| 2026-04-22 16:11 | 47.35400 | 65.47177 | 36790 ft | 547 kts | 80° |
| 2026-04-22 16:11 | 47.37218 | 65.58054 | 36789 ft | 547 kts | 80° |
| 2026-04-22 16:12 | 47.39030 | 65.68963 | 36785 ft | 547 kts | 80° |
| 2026-04-22 16:12 | 47.40833 | 65.79885 | 36781 ft | 548 kts | 80° |
| 2026-04-22 16:13 | 47.42644 | 65.90808 | 36779 ft | 548 kts | 79° |
| 2026-04-22 16:13 | 47.44516 | 66.01721 | 36771 ft | 548 kts | 79° |
| 2026-04-22 16:14 | 47.46388 | 66.12650 | 36770 ft | 549 kts | 79° |
| 2026-04-22 16:14 | 47.48239 | 66.23588 | 36772 ft | 549 kts | 79° |
| 2026-04-22 16:15 | 47.50076 | 66.34545 | 36759 ft | 549 kts | 79° |
| 2026-04-22 16:15 | 47.51900 | 66.45510 | 36755 ft | 549 kts | 79° |
| 2026-04-22 16:16 | 47.53717 | 66.56494 | 36754 ft | 549 kts | 79° |
| 2026-04-22 16:16 | 47.55510 | 66.67401 | 36747 ft | 550 kts | 79° |
| 2026-04-22 16:17 | 47.57301 | 66.78413 | 36742 ft | 550 kts | 80° |
| 2026-04-22 16:17 | 47.59021 | 66.89448 | 36744 ft | 550 kts | 80° |
| 2026-04-22 16:18 | 47.60719 | 67.00496 | 36740 ft | 550 kts | 80° |
| 2026-04-22 16:18 | 47.62419 | 67.11562 | 36727 ft | 551 kts | 80° |
| 2026-04-22 16:19 | 47.64116 | 67.22642 | 36737 ft | 551 kts | 80° |
| 2026-04-22 16:19 | 47.65801 | 67.33713 | 36725 ft | 550 kts | 80° |
| 2026-04-22 16:20 | 47.67474 | 67.44784 | 36714 ft | 550 kts | 80° |
| 2026-04-22 16:20 | 47.69137 | 67.55868 | 36719 ft | 550 kts | 80° |
| 2026-04-22 16:21 | 47.70787 | 67.66947 | 36718 ft | 550 kts | 80° |
| 2026-04-22 16:21 | 47.72428 | 67.78054 | 36717 ft | 550 kts | 80° |
| 2026-04-22 16:22 | 47.74141 | 67.94850 | 36720 ft | 548 kts | 85° |
| 2026-04-22 16:23 | 47.75610 | 68.11699 | 36723 ft | 548 kts | 85° |
| 2026-04-22 16:23 | 47.76660 | 68.22922 | 36726 ft | 549 kts | 84° |
| 2026-04-22 16:24 | 47.78250 | 68.39779 | 36726 ft | 549 kts | 84° |
| 2026-04-22 16:25 | 47.79304 | 68.51047 | 36729 ft | 551 kts | 86° |
| 2026-04-22 16:25 | 47.80851 | 68.68120 | 36732 ft | 557 kts | 86° |
| 2026-04-22 16:26 | 47.81849 | 68.79533 | 36727 ft | 555 kts | 89° |
| 2026-04-22 16:26 | 47.81938 | 68.90932 | 36732 ft | 550 kts | 96° |
| 2026-04-22 16:27 | 47.81784 | 69.00384 | 36732 ft | 550 kts | 96° |
| 2026-04-22 16:27 | 47.81545 | 69.11771 | 36736 ft | 550 kts | 96° |
| 2026-04-22 16:28 | 47.81304 | 69.23132 | 36736 ft | 550 kts | 96° |
| 2026-04-22 16:28 | 47.81066 | 69.34520 | 36736 ft | 550 kts | 96° |
| 2026-04-22 16:29 | 47.80821 | 69.45904 | 36741 ft | 551 kts | 96° |
| 2026-04-22 16:29 | 47.80564 | 69.57294 | 36741 ft | 551 kts | 96° |
| 2026-04-22 16:30 | 47.80295 | 69.68681 | 36736 ft | 551 kts | 96° |
| 2026-04-22 16:30 | 47.80015 | 69.80076 | 36748 ft | 552 kts | 96° |
| 2026-04-22 16:31 | 47.79723 | 69.91475 | 36747 ft | 552 kts | 97° |
| 2026-04-22 16:31 | 47.79420 | 70.02892 | 36750 ft | 552 kts | 97° |
| 2026-04-22 16:32 | 47.79105 | 70.14305 | 36747 ft | 553 kts | 97° |
| 2026-04-22 16:32 | 47.78779 | 70.25720 | 36752 ft | 553 kts | 96° |
| 2026-04-22 16:33 | 47.78441 | 70.37151 | 36750 ft | 554 kts | 96° |
| 2026-04-22 16:33 | 47.78090 | 70.48603 | 36751 ft | 554 kts | 96° |
| 2026-04-22 16:34 | 47.77730 | 70.60043 | 36758 ft | 555 kts | 96° |
| 2026-04-22 16:34 | 47.77360 | 70.71506 | 36760 ft | 555 kts | 96° |
| 2026-04-22 16:35 | 47.76972 | 70.82960 | 36760 ft | 555 kts | 97° |
| 2026-04-22 16:35 | 47.76571 | 70.94412 | 36767 ft | 555 kts | 97° |
| 2026-04-22 16:36 | 47.76163 | 71.05794 | 36772 ft | 555 kts | 97° |
| 2026-04-22 16:36 | 47.75739 | 71.17330 | 36773 ft | 555 kts | 97° |
| 2026-04-22 16:37 | 47.75309 | 71.28718 | 36776 ft | 556 kts | 97° |
| 2026-04-22 16:37 | 47.74865 | 71.40176 | 36780 ft | 556 kts | 97° |
| 2026-04-22 16:38 | 47.74409 | 71.51646 | 36781 ft | 556 kts | 97° |
| 2026-04-22 16:38 | 47.73941 | 71.63123 | 36783 ft | 556 kts | 97° |
| 2026-04-22 16:39 | 47.73462 | 71.74584 | 36785 ft | 557 kts | 97° |
| 2026-04-22 16:39 | 47.72969 | 71.86062 | 36788 ft | 557 kts | 97° |
| 2026-04-22 16:40 | 47.72338 | 71.97513 | 36794 ft | 556 kts | 98° |
| 2026-04-22 16:41 | 47.71283 | 72.14664 | 36797 ft | 557 kts | 98° |
| 2026-04-22 16:41 | 47.70592 | 72.26108 | 36805 ft | 557 kts | 98° |
| 2026-04-22 16:42 | 47.69899 | 72.37569 | 36805 ft | 557 kts | 98° |
| 2026-04-22 16:42 | 47.69197 | 72.49023 | 36803 ft | 557 kts | 98° |
| 2026-04-22 16:43 | 47.68484 | 72.60456 | 36809 ft | 557 kts | 98° |
| 2026-04-22 16:43 | 47.67756 | 72.71911 | 36810 ft | 558 kts | 98° |
| 2026-04-22 16:44 | 47.67017 | 72.83365 | 36810 ft | 558 kts | 98° |
| 2026-04-22 16:44 | 47.66271 | 72.94754 | 36809 ft | 558 kts | 98° |
| 2026-04-22 16:45 | 47.65504 | 73.06283 | 36809 ft | 558 kts | 98° |
| 2026-04-22 16:45 | 47.64730 | 73.17733 | 36811 ft | 558 kts | 98° |
| 2026-04-22 16:46 | 47.63949 | 73.29125 | 36813 ft | 559 kts | 98° |
| 2026-04-22 16:46 | 47.63146 | 73.40663 | 36817 ft | 559 kts | 98° |
| 2026-04-22 16:47 | 47.62337 | 73.52119 | 36812 ft | 559 kts | 98° |
| 2026-04-22 16:47 | 47.61516 | 73.63581 | 36819 ft | 559 kts | 98° |
| 2026-04-22 16:48 | 47.60684 | 73.75035 | 36811 ft | 559 kts | 98° |
| 2026-04-22 16:48 | 47.59845 | 73.86420 | 36813 ft | 559 kts | 98° |
| 2026-04-22 16:49 | 47.58990 | 73.97878 | 36810 ft | 560 kts | 98° |
| 2026-04-22 16:49 | 47.58123 | 74.09335 | 36820 ft | 560 kts | 98° |
| 2026-04-22 16:50 | 47.57243 | 74.20795 | 36819 ft | 560 kts | 98° |
| 2026-04-22 16:50 | 47.56353 | 74.32248 | 36814 ft | 560 kts | 98° |
| 2026-04-22 16:51 | 47.55452 | 74.43686 | 36823 ft | 560 kts | 98° |
| 2026-04-22 16:51 | 47.54538 | 74.55140 | 36825 ft | 560 kts | 98° |
| 2026-04-22 16:52 | 47.53613 | 74.66583 | 36823 ft | 560 kts | 98° |
| 2026-04-22 16:52 | 47.52678 | 74.78011 | 36823 ft | 560 kts | 98° |
| 2026-04-22 16:53 | 47.51731 | 74.89445 | 36828 ft | 560 kts | 98° |
| 2026-04-22 16:53 | 47.50772 | 75.00873 | 36828 ft | 560 kts | 98° |
| 2026-04-22 16:54 | 47.49802 | 75.12302 | 36826 ft | 560 kts | 98° |
| 2026-04-22 16:54 | 47.48820 | 75.23738 | 36828 ft | 560 kts | 98° |
| 2026-04-22 16:55 | 47.47827 | 75.35155 | 36829 ft | 560 kts | 98° |
| 2026-04-22 16:55 | 47.46823 | 75.46559 | 36826 ft | 560 kts | 98° |
| 2026-04-22 16:56 | 47.45808 | 75.57963 | 36825 ft | 560 kts | 98° |
| 2026-04-22 16:56 | 47.44781 | 75.69369 | 36828 ft | 559 kts | 98° |
| 2026-04-22 16:57 | 47.43745 | 75.80751 | 36828 ft | 559 kts | 98° |
| 2026-04-22 16:57 | 47.42705 | 75.92053 | 36828 ft | 559 kts | 98° |
| 2026-04-22 16:58 | 47.41819 | 76.01574 | 36828 ft | 559 kts | 98° |
| 2026-04-22 16:58 | 47.40578 | 76.14765 | 36833 ft | 558 kts | 98° |
| 2026-04-22 16:59 | 47.39498 | 76.26111 | 36836 ft | 558 kts | 98° |
| 2026-04-22 16:59 | 47.38408 | 76.37447 | 36836 ft | 558 kts | 98° |
| 2026-04-22 17:00 | 47.37308 | 76.48769 | 36839 ft | 558 kts | 98° |
| 2026-04-22 17:00 | 47.35635 | 76.65748 | 36840 ft | 557 kts | 98° |
| 2026-04-22 17:01 | 47.34508 | 76.77050 | 36843 ft | 557 kts | 98° |
| 2026-04-22 17:01 | 47.33369 | 76.88343 | 36839 ft | 557 kts | 98° |
| 2026-04-22 17:02 | 47.32219 | 76.99640 | 36842 ft | 557 kts | 98° |
| 2026-04-22 17:02 | 47.31118 | 77.10922 | 36845 ft | 557 kts | 96° |
| 2026-04-22 17:03 | 47.30531 | 77.22305 | 36851 ft | 556 kts | 92° |
| 2026-04-22 17:03 | 47.30068 | 77.33683 | 36845 ft | 557 kts | 93° |
| 2026-04-22 17:04 | 47.29515 | 77.45053 | 36852 ft | 557 kts | 94° |
| 2026-04-22 17:04 | 47.28895 | 77.56421 | 36831 ft | 557 kts | 94° |
| 2026-04-22 17:05 | 47.28250 | 77.67780 | 36838 ft | 557 kts | 94° |
| 2026-04-22 17:05 | 47.27596 | 77.79142 | 36835 ft | 556 kts | 94° |
| 2026-04-22 17:06 | 47.26936 | 77.90480 | 36837 ft | 556 kts | 94° |
| 2026-04-22 17:06 | 47.26265 | 78.01819 | 36843 ft | 556 kts | 94° |
| 2026-04-22 17:07 | 47.25588 | 78.13079 | 36841 ft | 555 kts | 94° |
| 2026-04-22 17:07 | 47.24896 | 78.24393 | 36841 ft | 555 kts | 94° |
| 2026-04-22 17:08 | 47.24193 | 78.35692 | 36837 ft | 555 kts | 94° |
| 2026-04-22 17:08 | 47.23479 | 78.46990 | 36839 ft | 554 kts | 94° |
| 2026-04-22 17:09 | 47.22755 | 78.58273 | 36837 ft | 554 kts | 94° |
| 2026-04-22 17:09 | 47.22020 | 78.69555 | 36840 ft | 554 kts | 94° |
| 2026-04-22 17:10 | 47.21273 | 78.80835 | 36838 ft | 554 kts | 94° |
| 2026-04-22 17:10 | 47.20516 | 78.92101 | 36834 ft | 554 kts | 94° |
| 2026-04-22 17:11 | 47.19748 | 79.03371 | 36836 ft | 554 kts | 94° |
| 2026-04-22 17:11 | 47.18970 | 79.14621 | 36823 ft | 553 kts | 94° |
| 2026-04-22 17:12 | 47.18169 | 79.25879 | 36828 ft | 553 kts | 95° |
| 2026-04-22 17:12 | 47.17338 | 79.37123 | 36831 ft | 553 kts | 95° |
| 2026-04-22 17:13 | 47.16500 | 79.48341 | 36832 ft | 553 kts | 95° |
| 2026-04-22 17:13 | 47.15653 | 79.59572 | 36830 ft | 553 kts | 95° |
| 2026-04-22 17:14 | 47.14941 | 79.68919 | 36829 ft | 553 kts | 95° |
| 2026-04-22 17:14 | 47.13933 | 79.81984 | 36830 ft | 554 kts | 95° |
| 2026-04-22 17:15 | 47.13203 | 79.91396 | 36833 ft | 554 kts | 95° |
| 2026-04-22 17:15 | 47.12341 | 80.02648 | 36836 ft | 555 kts | 95° |
| 2026-04-22 17:16 | 47.11470 | 80.13897 | 36838 ft | 555 kts | 95° |
| 2026-04-22 17:16 | 47.10585 | 80.25162 | 36839 ft | 556 kts | 95° |
| 2026-04-22 17:17 | 47.09686 | 80.36431 | 36840 ft | 556 kts | 95° |
| 2026-04-22 17:17 | 47.08776 | 80.47698 | 36849 ft | 556 kts | 95° |
| 2026-04-22 17:18 | 47.07855 | 80.58958 | 36849 ft | 556 kts | 95° |
| 2026-04-22 17:18 | 47.06924 | 80.70219 | 36849 ft | 556 kts | 95° |
| 2026-04-22 17:19 | 47.05027 | 80.92725 | 36859 ft | 556 kts | 95° |
| 2026-04-22 17:20 | 47.03096 | 81.15180 | 36869 ft | 555 kts | 95° |
| 2026-04-22 17:21 | 47.01610 | 81.32000 | 36869 ft | 555 kts | 95° |
| 2026-04-22 17:22 | 47.00112 | 81.48722 | 36873 ft | 554 kts | 95° |
| 2026-04-22 17:23 | 46.98584 | 81.65523 | 36876 ft | 555 kts | 95° |
| 2026-04-22 17:23 | 46.97030 | 81.82316 | 36884 ft | 555 kts | 95° |
| 2026-04-22 17:24 | 46.95980 | 81.93523 | 36879 ft | 556 kts | 96° |
| 2026-04-22 17:24 | 46.94917 | 82.04741 | 36885 ft | 556 kts | 96° |
| 2026-04-22 17:25 | 46.93827 | 82.15963 | 36885 ft | 557 kts | 96° |
| 2026-04-22 17:25 | 46.92729 | 82.27172 | 36896 ft | 557 kts | 96° |
| 2026-04-22 17:26 | 46.91620 | 82.38403 | 36892 ft | 558 kts | 96° |
| 2026-04-22 17:26 | 46.90501 | 82.49620 | 36895 ft | 557 kts | 96° |
| 2026-04-22 17:27 | 46.89373 | 82.60829 | 36897 ft | 557 kts | 96° |
| 2026-04-22 17:27 | 46.88235 | 82.72028 | 36902 ft | 557 kts | 96° |
| 2026-04-22 17:28 | 46.87051 | 82.83200 | 36892 ft | 557 kts | 99° |
| 2026-04-22 17:28 | 46.86003 | 82.88656 | 36895 ft | 559 kts | 110° |
| 2026-04-22 17:28 | 46.84350 | 82.93783 | 36899 ft | 558 kts | 120° |
| 2026-04-22 17:29 | 46.80363 | 83.03490 | 36890 ft | 558 kts | 123° |
| 2026-04-22 17:29 | 46.76186 | 83.13044 | 36891 ft | 558 kts | 123° |
| 2026-04-22 17:30 | 46.72021 | 83.22567 | 36889 ft | 558 kts | 123° |
| 2026-04-22 17:30 | 46.67870 | 83.32123 | 36890 ft | 558 kts | 123° |
| 2026-04-22 17:31 | 46.63683 | 83.41614 | 36890 ft | 557 kts | 126° |
| 2026-04-22 17:31 | 46.59101 | 83.50705 | 36890 ft | 557 kts | 129° |
| 2026-04-22 17:32 | 46.54429 | 83.59684 | 36888 ft | 557 kts | 128° |
| 2026-04-22 17:32 | 46.49805 | 83.68716 | 36892 ft | 557 kts | 128° |
| 2026-04-22 17:33 | 46.45210 | 83.77783 | 36895 ft | 557 kts | 127° |
| 2026-04-22 17:33 | 46.40615 | 83.86847 | 36901 ft | 557 kts | 127° |
| 2026-04-22 17:34 | 46.36017 | 83.95881 | 36907 ft | 557 kts | 128° |
| 2026-04-22 17:34 | 46.31404 | 84.04909 | 36910 ft | 557 kts | 128° |
| 2026-04-22 17:35 | 46.26790 | 84.13907 | 36915 ft | 557 kts | 128° |
| 2026-04-22 17:35 | 46.22187 | 84.22844 | 36917 ft | 558 kts | 128° |
| 2026-04-22 17:36 | 46.17528 | 84.31798 | 36915 ft | 558 kts | 128° |
| 2026-04-22 17:36 | 46.12864 | 84.40736 | 36925 ft | 558 kts | 128° |
| 2026-04-22 17:37 | 46.08202 | 84.49652 | 36919 ft | 557 kts | 128° |
| 2026-04-22 17:37 | 46.03528 | 84.58568 | 36908 ft | 557 kts | 128° |
| 2026-04-22 17:38 | 45.98854 | 84.67457 | 36905 ft | 557 kts | 128° |
| 2026-04-22 17:38 | 45.94174 | 84.76328 | 36899 ft | 557 kts | 128° |
| 2026-04-22 17:39 | 45.89491 | 84.85179 | 36892 ft | 557 kts | 128° |
| 2026-04-22 17:40 | 45.82458 | 84.98418 | 36885 ft | 556 kts | 128° |
| 2026-04-22 17:40 | 45.77760 | 85.07227 | 36873 ft | 556 kts | 128° |
| 2026-04-22 17:41 | 45.73053 | 85.16024 | 36867 ft | 556 kts | 128° |
| 2026-04-22 17:41 | 45.68345 | 85.24805 | 36864 ft | 556 kts | 128° |
| 2026-04-22 17:42 | 45.63657 | 85.33586 | 36860 ft | 556 kts | 128° |
| 2026-04-22 17:42 | 45.59748 | 85.40897 | 36852 ft | 557 kts | 128° |
| 2026-04-22 17:43 | 45.54246 | 85.51149 | 36855 ft | 557 kts | 128° |
| 2026-04-22 17:43 | 45.49557 | 85.59854 | 36856 ft | 557 kts | 128° |
| 2026-04-22 17:44 | 45.44798 | 85.68658 | 36852 ft | 557 kts | 128° |
| 2026-04-22 17:44 | 45.40063 | 85.77391 | 36856 ft | 557 kts | 128° |
| 2026-04-22 17:45 | 45.36131 | 85.84623 | 36853 ft | 557 kts | 128° |
| 2026-04-22 17:45 | 45.30613 | 85.94742 | 36858 ft | 557 kts | 128° |
| 2026-04-22 17:46 | 45.25863 | 86.03424 | 36854 ft | 557 kts | 128° |
| 2026-04-22 17:46 | 45.21109 | 86.12085 | 36856 ft | 556 kts | 128° |
| 2026-04-22 17:47 | 45.16349 | 86.20733 | 36858 ft | 556 kts | 128° |
| 2026-04-22 17:47 | 45.11584 | 86.29362 | 36865 ft | 556 kts | 128° |
| 2026-04-22 17:48 | 45.07628 | 86.36506 | 36866 ft | 555 kts | 128° |
| 2026-04-22 17:48 | 45.02048 | 86.46552 | 36868 ft | 555 kts | 128° |
| 2026-04-22 17:49 | 44.97280 | 86.55110 | 36869 ft | 554 kts | 128° |
| 2026-04-22 17:49 | 44.92507 | 86.63651 | 36870 ft | 554 kts | 128° |
| 2026-04-22 17:50 | 44.87727 | 86.72180 | 36878 ft | 554 kts | 128° |
| 2026-04-22 17:50 | 44.82948 | 86.80681 | 36879 ft | 553 kts | 128° |
| 2026-04-22 17:51 | 44.78129 | 86.89125 | 36882 ft | 553 kts | 129° |
| 2026-04-22 17:51 | 44.73262 | 86.97511 | 36884 ft | 553 kts | 129° |
| 2026-04-22 17:52 | 44.68409 | 87.05889 | 36884 ft | 553 kts | 129° |
| 2026-04-22 17:52 | 44.63566 | 87.14260 | 36885 ft | 553 kts | 129° |
| 2026-04-22 17:53 | 44.58712 | 87.22634 | 36888 ft | 553 kts | 129° |
| 2026-04-22 17:53 | 44.53893 | 87.30941 | 36889 ft | 553 kts | 128° |
| 2026-04-22 17:54 | 44.49205 | 87.39470 | 36894 ft | 552 kts | 127° |
| 2026-04-22 17:54 | 44.44584 | 87.48062 | 36895 ft | 552 kts | 127° |
| 2026-04-22 17:55 | 44.40693 | 87.55230 | 36898 ft | 552 kts | 127° |
| 2026-04-22 17:55 | 44.35265 | 87.65124 | 36900 ft | 552 kts | 127° |
| 2026-04-22 17:56 | 44.30592 | 87.73633 | 36902 ft | 552 kts | 127° |
| 2026-04-22 17:56 | 44.25991 | 87.82214 | 36908 ft | 552 kts | 126° |
| 2026-04-22 17:57 | 44.21581 | 87.90971 | 36915 ft | 551 kts | 117° |
| 2026-04-22 17:57 | 44.19993 | 87.95799 | 36921 ft | 547 kts | 106° |
| 2026-04-22 17:57 | 44.19047 | 88.00909 | 36922 ft | 541 kts | 95° |
| 2026-04-22 17:57 | 44.18797 | 88.06090 | 36923 ft | 533 kts | 83° |
| 2026-04-22 17:58 | 44.19203 | 88.11175 | 36929 ft | 526 kts | 74° |
| 2026-04-22 17:58 | 44.20633 | 88.21144 | 36924 ft | 525 kts | 72° |
| 2026-04-22 17:59 | 44.22186 | 88.31084 | 36922 ft | 525 kts | 72° |
| 2026-04-22 17:59 | 44.23697 | 88.41042 | 36916 ft | 525 kts | 72° |
| 2026-04-22 18:00 | 44.24920 | 88.49344 | 36916 ft | 525 kts | 72° |
| 2026-04-22 18:00 | 44.26603 | 88.60932 | 36899 ft | 524 kts | 72° |
| 2026-04-22 18:01 | 44.28040 | 88.70900 | 36905 ft | 524 kts | 73° |
| 2026-04-22 18:01 | 44.29468 | 88.80857 | 36901 ft | 524 kts | 73° |
| 2026-04-22 18:02 | 44.30659 | 88.89205 | 36901 ft | 523 kts | 73° |
| 2026-04-22 18:02 | 44.32075 | 88.99184 | 36900 ft | 523 kts | 73° |
| 2026-04-22 18:03 | 44.33479 | 89.09154 | 36899 ft | 523 kts | 73° |
| 2026-04-22 18:03 | 44.34875 | 89.19127 | 36898 ft | 523 kts | 73° |
| 2026-04-22 18:04 | 44.36263 | 89.29115 | 36897 ft | 523 kts | 73° |
| 2026-04-22 18:04 | 44.37641 | 89.39095 | 36897 ft | 523 kts | 73° |
| 2026-04-22 18:05 | 44.39008 | 89.49066 | 36898 ft | 523 kts | 73° |
| 2026-04-22 18:05 | 44.40370 | 89.59062 | 36897 ft | 523 kts | 73° |
| 2026-04-22 18:06 | 44.41091 | 89.69161 | 36899 ft | 533 kts | 89° |
| 2026-04-22 18:06 | 44.40593 | 89.74388 | 36898 ft | 539 kts | 100° |
| 2026-04-22 18:06 | 44.39660 | 89.79468 | 36896 ft | 540 kts | 102° |
| 2026-04-22 18:07 | 44.37490 | 89.89540 | 36895 ft | 542 kts | 104° |
| 2026-04-22 18:07 | 44.35246 | 89.99510 | 36896 ft | 541 kts | 104° |
| 2026-04-22 18:08 | 44.33014 | 90.09548 | 36897 ft | 541 kts | 104° |
| 2026-04-22 18:08 | 44.30788 | 90.19652 | 36897 ft | 541 kts | 104° |
| 2026-04-22 18:09 | 44.28590 | 90.29617 | 36897 ft | 541 kts | 104° |
| 2026-04-22 18:09 | 44.26368 | 90.39637 | 36903 ft | 541 kts | 104° |
| 2026-04-22 18:10 | 44.24134 | 90.49660 | 36896 ft | 541 kts | 104° |
| 2026-04-22 18:10 | 44.21894 | 90.59661 | 36899 ft | 540 kts | 104° |
| 2026-04-22 18:11 | 44.19644 | 90.69659 | 36902 ft | 540 kts | 104° |
| 2026-04-22 18:11 | 44.17388 | 90.79633 | 36905 ft | 540 kts | 104° |
| 2026-04-22 18:12 | 44.15122 | 90.89611 | 36909 ft | 540 kts | 104° |
| 2026-04-22 18:12 | 44.13233 | 90.97893 | 36912 ft | 540 kts | 104° |
| 2026-04-22 18:13 | 44.10572 | 91.09529 | 36913 ft | 540 kts | 105° |
| 2026-04-22 18:13 | 44.08281 | 91.19489 | 36914 ft | 540 kts | 105° |
| 2026-04-22 18:14 | 44.05980 | 91.29430 | 36918 ft | 540 kts | 105° |
| 2026-04-22 18:14 | 44.03673 | 91.39365 | 36924 ft | 540 kts | 105° |
| 2026-04-22 18:15 | 44.01357 | 91.49297 | 36914 ft | 541 kts | 105° |
| 2026-04-22 18:15 | 43.99001 | 91.59235 | 36919 ft | 542 kts | 105° |
| 2026-04-22 18:16 | 43.96635 | 91.69158 | 36921 ft | 542 kts | 105° |
| 2026-04-22 18:16 | 43.94258 | 91.79105 | 36925 ft | 542 kts | 105° |
| 2026-04-22 18:17 | 43.91880 | 91.89027 | 36925 ft | 542 kts | 105° |
| 2026-04-22 18:17 | 43.89495 | 91.98933 | 36926 ft | 542 kts | 106° |
| 2026-04-22 18:18 | 43.87101 | 92.08833 | 36925 ft | 541 kts | 106° |
| 2026-04-22 18:18 | 43.84703 | 92.18706 | 36930 ft | 540 kts | 106° |
| 2026-04-22 18:19 | 43.82304 | 92.28540 | 36925 ft | 539 kts | 106° |
| 2026-04-22 18:19 | 43.79894 | 92.38376 | 36926 ft | 538 kts | 106° |
| 2026-04-22 18:20 | 43.77483 | 92.48173 | 36925 ft | 538 kts | 107° |
| 2026-04-22 18:20 | 43.75065 | 92.57960 | 36927 ft | 537 kts | 107° |
| 2026-04-22 18:21 | 43.72647 | 92.67709 | 36924 ft | 536 kts | 107° |
| 2026-04-22 18:21 | 43.70221 | 92.77444 | 36922 ft | 535 kts | 107° |
| 2026-04-22 18:22 | 43.67792 | 92.87149 | 36925 ft | 534 kts | 107° |
| 2026-04-22 18:22 | 43.65360 | 92.96826 | 36926 ft | 533 kts | 107° |
| 2026-04-22 18:23 | 43.62972 | 93.06517 | 36930 ft | 532 kts | 106° |
| 2026-04-22 18:23 | 43.60676 | 93.16211 | 36933 ft | 532 kts | 106° |
| 2026-04-22 18:24 | 43.57208 | 93.30757 | 36932 ft | 532 kts | 107° |
| 2026-04-22 18:25 | 43.53713 | 93.45203 | 36930 ft | 532 kts | 107° |
| 2026-04-22 18:25 | 43.51359 | 93.54871 | 36930 ft | 532 kts | 107° |
| 2026-04-22 18:26 | 43.47816 | 93.69350 | 36926 ft | 532 kts | 107° |
| 2026-04-22 18:26 | 43.45444 | 93.78992 | 36933 ft | 532 kts | 108° |
| 2026-04-22 18:27 | 43.43067 | 93.88620 | 36930 ft | 531 kts | 108° |
| 2026-04-22 18:27 | 43.40680 | 93.98245 | 36930 ft | 531 kts | 108° |
| 2026-04-22 18:28 | 43.38290 | 94.07842 | 36924 ft | 531 kts | 108° |
| 2026-04-22 18:28 | 43.35892 | 94.17431 | 36925 ft | 530 kts | 108° |
| 2026-04-22 18:29 | 43.33485 | 94.27013 | 36920 ft | 530 kts | 108° |
| 2026-04-22 18:29 | 43.31076 | 94.36568 | 36916 ft | 530 kts | 108° |
| 2026-04-22 18:30 | 43.27445 | 94.50898 | 36907 ft | 529 kts | 109° |
| 2026-04-22 18:31 | 43.25018 | 94.60426 | 36900 ft | 529 kts | 109° |
| 2026-04-22 18:31 | 43.22582 | 94.69947 | 36886 ft | 528 kts | 109° |
| 2026-04-22 18:32 | 43.20146 | 94.79437 | 36879 ft | 528 kts | 109° |
| 2026-04-22 18:32 | 43.17701 | 94.88918 | 36868 ft | 527 kts | 109° |
| 2026-04-22 18:33 | 43.15269 | 94.98315 | 36861 ft | 527 kts | 109° |
| 2026-04-22 18:33 | 43.11974 | 95.07211 | 36850 ft | 524 kts | 127° |
| 2026-04-22 18:33 | 43.09597 | 95.10972 | 36851 ft | 521 kts | 138° |
| 2026-04-22 18:34 | 43.06817 | 95.14112 | 36850 ft | 518 kts | 146° |
| 2026-04-22 18:34 | 43.00904 | 95.19742 | 36849 ft | 518 kts | 149° |
| 2026-04-22 18:35 | 42.94913 | 95.25189 | 36847 ft | 517 kts | 149° |
| 2026-04-22 18:35 | 42.88936 | 95.30660 | 36852 ft | 517 kts | 148° |
| 2026-04-22 18:36 | 42.82977 | 95.36162 | 36853 ft | 517 kts | 148° |
| 2026-04-22 18:36 | 42.77027 | 95.41660 | 36858 ft | 517 kts | 148° |
| 2026-04-22 18:37 | 42.71068 | 95.47155 | 36858 ft | 517 kts | 148° |
| 2026-04-22 18:37 | 42.66125 | 95.51701 | 36860 ft | 517 kts | 148° |
| 2026-04-22 18:38 | 42.59159 | 95.58090 | 36866 ft | 517 kts | 148° |
| 2026-04-22 18:38 | 42.53193 | 95.63549 | 36868 ft | 517 kts | 149° |
| 2026-04-22 18:39 | 42.44471 | 95.72120 | 36865 ft | 520 kts | 137° |
| 2026-04-22 18:39 | 42.40242 | 95.80052 | 36865 ft | 523 kts | 115° |
| 2026-04-22 18:40 | 42.39014 | 95.84665 | 36869 ft | 523 kts | 103° |
| 2026-04-22 18:40 | 42.38440 | 95.89517 | 36874 ft | 522 kts | 93° |
| 2026-04-22 18:40 | 42.38097 | 95.99256 | 36863 ft | 522 kts | 90° |
| 2026-04-22 18:41 | 42.37910 | 96.09067 | 36865 ft | 522 kts | 91° |
| 2026-04-22 18:41 | 42.37680 | 96.18878 | 36866 ft | 521 kts | 91° |
| 2026-04-22 18:42 | 42.37399 | 96.28672 | 36859 ft | 521 kts | 91° |
| 2026-04-22 18:42 | 42.37098 | 96.38432 | 36866 ft | 520 kts | 92° |
| 2026-04-22 18:43 | 42.36789 | 96.48213 | 36860 ft | 520 kts | 92° |
| 2026-04-22 18:43 | 42.36473 | 96.57981 | 36859 ft | 520 kts | 92° |
| 2026-04-22 18:44 | 42.36150 | 96.67736 | 36857 ft | 519 kts | 92° |
| 2026-04-22 18:44 | 42.35820 | 96.77485 | 36857 ft | 519 kts | 92° |
| 2026-04-22 18:45 | 42.35481 | 96.87228 | 36856 ft | 519 kts | 92° |
| 2026-04-22 18:45 | 42.35134 | 96.96965 | 36860 ft | 519 kts | 93° |
| 2026-04-22 18:46 | 42.34779 | 97.06703 | 36859 ft | 518 kts | 93° |
| 2026-04-22 18:46 | 42.34478 | 97.14784 | 36860 ft | 518 kts | 93° |
| 2026-04-22 18:47 | 42.34107 | 97.24528 | 36858 ft | 519 kts | 93° |
| 2026-04-22 18:47 | 42.33729 | 97.34253 | 36862 ft | 518 kts | 93° |
| 2026-04-22 18:48 | 42.33343 | 97.43973 | 36864 ft | 518 kts | 93° |
| 2026-04-22 18:48 | 42.32949 | 97.53695 | 36868 ft | 518 kts | 93° |
| 2026-04-22 18:49 | 42.32547 | 97.63406 | 36871 ft | 518 kts | 93° |
| 2026-04-22 18:49 | 42.32136 | 97.73123 | 36876 ft | 518 kts | 93° |
| 2026-04-22 18:50 | 42.31717 | 97.82833 | 36872 ft | 518 kts | 93° |
| 2026-04-22 18:50 | 42.31291 | 97.92534 | 36875 ft | 517 kts | 94° |
| 2026-04-22 18:51 | 42.30856 | 98.02239 | 36873 ft | 517 kts | 94° |
| 2026-04-22 18:51 | 42.30413 | 98.11941 | 36866 ft | 517 kts | 94° |
| 2026-04-22 18:52 | 42.29962 | 98.21642 | 36868 ft | 517 kts | 94° |
| 2026-04-22 18:52 | 42.29503 | 98.31331 | 36865 ft | 517 kts | 94° |
| 2026-04-22 18:53 | 42.29026 | 98.41019 | 36866 ft | 517 kts | 94° |
| 2026-04-22 18:53 | 42.28520 | 98.50696 | 36859 ft | 517 kts | 94° |
| 2026-04-22 18:54 | 42.28007 | 98.60369 | 36855 ft | 516 kts | 94° |
| 2026-04-22 18:54 | 42.27491 | 98.70035 | 36852 ft | 516 kts | 94° |
| 2026-04-22 18:55 | 42.26969 | 98.79688 | 36854 ft | 516 kts | 94° |
| 2026-04-22 18:55 | 42.26439 | 98.89344 | 36856 ft | 515 kts | 94° |
| 2026-04-22 18:56 | 42.25900 | 98.98999 | 36853 ft | 515 kts | 94° |
| 2026-04-22 18:56 | 42.25354 | 99.08643 | 36842 ft | 515 kts | 94° |
| 2026-04-22 18:57 | 42.24800 | 99.18282 | 36844 ft | 516 kts | 94° |
| 2026-04-22 18:57 | 42.24242 | 99.27860 | 36842 ft | 516 kts | 94° |
| 2026-04-22 18:58 | 42.23670 | 99.37515 | 36840 ft | 516 kts | 94° |
| 2026-04-22 18:58 | 42.23093 | 99.47147 | 36841 ft | 515 kts | 94° |
| 2026-04-22 18:59 | 42.22506 | 99.56788 | 36839 ft | 515 kts | 94° |
| 2026-04-22 18:59 | 42.21912 | 99.66414 | 36839 ft | 515 kts | 94° |
| 2026-04-22 19:00 | 42.21309 | 99.76043 | 36834 ft | 515 kts | 94° |
| 2026-04-22 19:00 | 42.20699 | 99.85675 | 36835 ft | 515 kts | 94° |
| 2026-04-22 19:01 | 42.20081 | 99.95293 | 36831 ft | 515 kts | 94° |
| 2026-04-22 19:01 | 42.19455 | 100.04909 | 36831 ft | 515 kts | 94° |
| 2026-04-22 19:02 | 42.18820 | 100.14533 | 36828 ft | 515 kts | 94° |
| 2026-04-22 19:02 | 42.18178 | 100.24146 | 36829 ft | 515 kts | 94° |
| 2026-04-22 19:03 | 42.17529 | 100.33740 | 36830 ft | 514 kts | 94° |
| 2026-04-22 19:03 | 42.16871 | 100.43342 | 36826 ft | 514 kts | 94° |
| 2026-04-22 19:04 | 42.16206 | 100.52940 | 36831 ft | 514 kts | 94° |
| 2026-04-22 19:04 | 42.15532 | 100.62535 | 36832 ft | 514 kts | 94° |
| 2026-04-22 19:05 | 42.14852 | 100.72117 | 36834 ft | 514 kts | 94° |
| 2026-04-22 19:05 | 42.14162 | 100.81706 | 36834 ft | 513 kts | 95° |
| 2026-04-22 19:06 | 42.13467 | 100.91263 | 36830 ft | 513 kts | 95° |
| 2026-04-22 19:07 | 42.12061 | 101.05534 | 36820 ft | 513 kts | 105° |
| 2026-04-22 19:07 | 42.09883 | 101.14608 | 36819 ft | 513 kts | 109° |
| 2026-04-22 19:08 | 42.07498 | 101.23651 | 36825 ft | 513 kts | 109° |
| 2026-04-22 19:08 | 42.05088 | 101.32684 | 36839 ft | 513 kts | 109° |
| 2026-04-22 19:09 | 42.02693 | 101.41709 | 36828 ft | 512 kts | 109° |
| 2026-04-22 19:09 | 42.00303 | 101.50730 | 36826 ft | 512 kts | 109° |
| 2026-04-22 19:10 | 41.97907 | 101.59749 | 36843 ft | 512 kts | 109° |
| 2026-04-22 19:10 | 41.95507 | 101.68750 | 36832 ft | 512 kts | 109° |
| 2026-04-22 19:11 | 41.93098 | 101.77746 | 36831 ft | 511 kts | 109° |
| 2026-04-22 19:11 | 41.90685 | 101.86721 | 36833 ft | 511 kts | 109° |
| 2026-04-22 19:12 | 41.88268 | 101.95681 | 36842 ft | 511 kts | 109° |
| 2026-04-22 19:12 | 41.85845 | 102.04634 | 36842 ft | 510 kts | 109° |
| 2026-04-22 19:13 | 41.83415 | 102.13574 | 36838 ft | 510 kts | 109° |
| 2026-04-22 19:13 | 41.80981 | 102.22501 | 36833 ft | 510 kts | 109° |
| 2026-04-22 19:14 | 41.78537 | 102.31430 | 36847 ft | 510 kts | 109° |
| 2026-04-22 19:14 | 41.76089 | 102.40344 | 36850 ft | 510 kts | 109° |
| 2026-04-22 19:15 | 41.74034 | 102.47803 | 36849 ft | 510 kts | 109° |
| 2026-04-22 19:15 | 41.71172 | 102.58149 | 36848 ft | 510 kts | 109° |
| 2026-04-22 19:16 | 41.68702 | 102.67047 | 36857 ft | 510 kts | 109° |
| 2026-04-22 19:16 | 41.66233 | 102.75933 | 36863 ft | 510 kts | 109° |
| 2026-04-22 19:17 | 41.63750 | 102.84819 | 36863 ft | 510 kts | 109° |
| 2026-04-22 19:17 | 41.61257 | 102.93698 | 36865 ft | 510 kts | 109° |
| 2026-04-22 19:18 | 41.58764 | 103.02567 | 36865 ft | 510 kts | 109° |
| 2026-04-22 19:18 | 41.56259 | 103.11434 | 36865 ft | 510 kts | 109° |
| 2026-04-22 19:19 | 41.53740 | 103.20304 | 36867 ft | 510 kts | 109° |
| 2026-04-22 19:19 | 41.51220 | 103.29154 | 36868 ft | 511 kts | 109° |
| 2026-04-22 19:20 | 41.48691 | 103.38011 | 36867 ft | 511 kts | 109° |
| 2026-04-22 19:20 | 41.46157 | 103.46854 | 36873 ft | 511 kts | 109° |
| 2026-04-22 19:21 | 41.43613 | 103.55704 | 36871 ft | 511 kts | 109° |
| 2026-04-22 19:21 | 41.41060 | 103.64551 | 36873 ft | 511 kts | 109° |
| 2026-04-22 19:22 | 41.38506 | 103.73375 | 36875 ft | 511 kts | 109° |
| 2026-04-22 19:22 | 41.35942 | 103.82200 | 36874 ft | 511 kts | 109° |
| 2026-04-22 19:23 | 41.33370 | 103.91023 | 36876 ft | 511 kts | 109° |
| 2026-04-22 19:23 | 41.30790 | 103.99845 | 36878 ft | 512 kts | 109° |
| 2026-04-22 19:24 | 41.28204 | 104.08658 | 36875 ft | 512 kts | 110° |
| 2026-04-22 19:24 | 41.25606 | 104.17479 | 36877 ft | 512 kts | 110° |
| 2026-04-22 19:25 | 41.23005 | 104.26281 | 36878 ft | 512 kts | 110° |
| 2026-04-22 19:25 | 41.20415 | 104.35017 | 36879 ft | 512 kts | 110° |
| 2026-04-22 19:26 | 41.17800 | 104.43810 | 36880 ft | 512 kts | 110° |
| 2026-04-22 19:26 | 41.15178 | 104.52594 | 36878 ft | 512 kts | 110° |
| 2026-04-22 19:27 | 41.12550 | 104.61371 | 36877 ft | 512 kts | 110° |
| 2026-04-22 19:27 | 41.09916 | 104.70138 | 36881 ft | 512 kts | 110° |
| 2026-04-22 19:28 | 41.07132 | 104.78813 | 36885 ft | 512 kts | 113° |
| 2026-04-22 19:28 | 41.04161 | 104.87406 | 36888 ft | 512 kts | 113° |
| 2026-04-22 19:29 | 41.01205 | 104.95978 | 36895 ft | 512 kts | 113° |
| 2026-04-22 19:29 | 40.98276 | 105.04566 | 36899 ft | 512 kts | 112° |
| 2026-04-22 19:30 | 40.96318 | 105.10321 | 36902 ft | 512 kts | 112° |
| 2026-04-22 19:30 | 40.92419 | 105.21756 | 36910 ft | 512 kts | 113° |
| 2026-04-22 19:31 | 40.89484 | 105.30326 | 36914 ft | 512 kts | 113° |
| 2026-04-22 19:31 | 40.86536 | 105.38905 | 36918 ft | 512 kts | 113° |
| 2026-04-22 19:32 | 40.84086 | 105.46014 | 36923 ft | 512 kts | 113° |
| 2026-04-22 19:32 | 40.81129 | 105.54573 | 36927 ft | 512 kts | 113° |
| 2026-04-22 19:33 | 40.78169 | 105.63111 | 36929 ft | 512 kts | 113° |
| 2026-04-22 19:33 | 40.75199 | 105.71655 | 36926 ft | 512 kts | 113° |
| 2026-04-22 19:34 | 40.72228 | 105.80177 | 36928 ft | 511 kts | 113° |
| 2026-04-22 19:34 | 40.69254 | 105.88679 | 36925 ft | 511 kts | 113° |
| 2026-04-22 19:35 | 40.66274 | 105.97174 | 36917 ft | 511 kts | 114° |
| 2026-04-22 19:35 | 40.63287 | 106.05664 | 36916 ft | 511 kts | 114° |
| 2026-04-22 19:36 | 40.60297 | 106.14137 | 36909 ft | 510 kts | 114° |
| 2026-04-22 19:36 | 40.57301 | 106.22604 | 36906 ft | 510 kts | 114° |
| 2026-04-22 19:37 | 40.54322 | 106.30998 | 36906 ft | 510 kts | 114° |
| 2026-04-22 19:37 | 40.51296 | 106.39497 | 36906 ft | 510 kts | 114° |
| 2026-04-22 19:38 | 40.48284 | 106.47931 | 36910 ft | 510 kts | 114° |
| 2026-04-22 19:38 | 40.45267 | 106.56356 | 36910 ft | 510 kts | 114° |
| 2026-04-22 19:39 | 40.42264 | 106.64719 | 36913 ft | 510 kts | 114° |
| 2026-04-22 19:39 | 40.39236 | 106.73126 | 36916 ft | 510 kts | 114° |
| 2026-04-22 19:40 | 40.36202 | 106.81524 | 36915 ft | 510 kts | 114° |
| 2026-04-22 19:40 | 40.33212 | 106.89945 | 36914 ft | 509 kts | 110° |
| 2026-04-22 19:41 | 40.31635 | 106.98906 | 36916 ft | 503 kts | 90° |
| 2026-04-22 19:41 | 40.32193 | 107.07970 | 36915 ft | 499 kts | 78° |
| 2026-04-22 19:42 | 40.33324 | 107.16938 | 36921 ft | 499 kts | 77° |
| 2026-04-22 19:42 | 40.34496 | 107.25897 | 36923 ft | 499 kts | 78° |
| 2026-04-22 19:43 | 40.36174 | 107.39342 | 36928 ft | 498 kts | 78° |
| 2026-04-22 19:43 | 40.37264 | 107.48322 | 36928 ft | 498 kts | 78° |
| 2026-04-22 19:44 | 40.38344 | 107.57293 | 36927 ft | 498 kts | 78° |
| 2026-04-22 19:44 | 40.39418 | 107.66260 | 36924 ft | 498 kts | 78° |
| 2026-04-22 19:45 | 40.40487 | 107.75234 | 36924 ft | 498 kts | 78° |
| 2026-04-22 19:45 | 40.41542 | 107.84150 | 36917 ft | 498 kts | 78° |
| 2026-04-22 19:46 | 40.42597 | 107.93123 | 36916 ft | 498 kts | 78° |
| 2026-04-22 19:46 | 40.43648 | 108.02099 | 36911 ft | 498 kts | 78° |
| 2026-04-22 19:47 | 40.44692 | 108.11140 | 36904 ft | 498 kts | 79° |
| 2026-04-22 19:47 | 40.45713 | 108.20070 | 36905 ft | 498 kts | 79° |
| 2026-04-22 19:48 | 40.46736 | 108.29059 | 36904 ft | 498 kts | 79° |
| 2026-04-22 19:48 | 40.47751 | 108.38041 | 36904 ft | 498 kts | 79° |
| 2026-04-22 19:49 | 40.48764 | 108.47053 | 36910 ft | 498 kts | 79° |
| 2026-04-22 19:49 | 40.49766 | 108.56047 | 36914 ft | 498 kts | 79° |
| 2026-04-22 19:50 | 40.50764 | 108.65063 | 36912 ft | 498 kts | 79° |
| 2026-04-22 19:50 | 40.51754 | 108.74065 | 36911 ft | 498 kts | 79° |
| 2026-04-22 19:51 | 40.52736 | 108.83072 | 36913 ft | 498 kts | 79° |
| 2026-04-22 19:51 | 40.53711 | 108.92074 | 36920 ft | 498 kts | 79° |
| 2026-04-22 19:52 | 40.54679 | 109.01087 | 36919 ft | 498 kts | 79° |
| 2026-04-22 19:52 | 40.55640 | 109.10098 | 36918 ft | 498 kts | 79° |
| 2026-04-22 19:53 | 40.56594 | 109.19106 | 36909 ft | 497 kts | 79° |
| 2026-04-22 19:53 | 40.57540 | 109.28112 | 36914 ft | 497 kts | 79° |
| 2026-04-22 19:54 | 40.58480 | 109.37135 | 36920 ft | 497 kts | 80° |
| 2026-04-22 19:54 | 40.59413 | 109.46151 | 36924 ft | 497 kts | 80° |
| 2026-04-22 19:55 | 40.60338 | 109.55163 | 36927 ft | 497 kts | 80° |
| 2026-04-22 19:55 | 40.61256 | 109.64183 | 36930 ft | 497 kts | 80° |
| 2026-04-22 19:56 | 40.62168 | 109.73207 | 36928 ft | 497 kts | 80° |
| 2026-04-22 19:56 | 40.63071 | 109.82218 | 36929 ft | 497 kts | 80° |
| 2026-04-22 19:57 | 40.63967 | 109.91235 | 36930 ft | 497 kts | 80° |
| 2026-04-22 19:57 | 40.64621 | 110.00298 | 36933 ft | 499 kts | 87° |
| 2026-04-22 19:58 | 40.64659 | 110.09454 | 36924 ft | 500 kts | 88° |
| 2026-04-22 19:58 | 40.64599 | 110.18606 | 36921 ft | 500 kts | 88° |
| 2026-04-22 20:00 | 40.64362 | 110.50660 | 36914 ft | 500 kts | 88° |
| 2026-04-22 20:01 | 40.64286 | 110.59769 | 36914 ft | 501 kts | 89° |
| 2026-04-22 20:01 | 40.64198 | 110.68935 | 36907 ft | 501 kts | 89° |
| 2026-04-22 20:02 | 40.64104 | 110.78111 | 36909 ft | 501 kts | 89° |
| 2026-04-22 20:02 | 40.64004 | 110.87340 | 36913 ft | 501 kts | 89° |
| 2026-04-22 20:03 | 40.63898 | 110.96451 | 36913 ft | 501 kts | 89° |
| 2026-04-22 20:03 | 40.63785 | 111.05633 | 36913 ft | 501 kts | 89° |
| 2026-04-22 20:04 | 40.63664 | 111.14803 | 36918 ft | 502 kts | 89° |
| 2026-04-22 20:04 | 40.63542 | 111.23981 | 36923 ft | 502 kts | 89° |
| 2026-04-22 20:05 | 40.63406 | 111.33162 | 36930 ft | 502 kts | 89° |
| 2026-04-22 20:05 | 40.63260 | 111.42355 | 36934 ft | 502 kts | 89° |
| 2026-04-22 20:06 | 40.63108 | 111.51533 | 36938 ft | 502 kts | 89° |
| 2026-04-22 20:06 | 40.62951 | 111.60724 | 36945 ft | 502 kts | 89° |
| 2026-04-22 20:07 | 40.62786 | 111.69913 | 36947 ft | 502 kts | 89° |
| 2026-04-22 20:07 | 40.62615 | 111.79097 | 36940 ft | 502 kts | 89° |
| 2026-04-22 20:08 | 40.62436 | 111.88278 | 36936 ft | 502 kts | 89° |
| 2026-04-22 20:08 | 40.62271 | 111.97471 | 36946 ft | 502 kts | 89° |
| 2026-04-22 20:09 | 40.62080 | 112.06215 | 36945 ft | 502 kts | 90° |
| 2026-04-22 20:09 | 40.61868 | 112.15408 | 36940 ft | 503 kts | 90° |
| 2026-04-22 20:10 | 40.61655 | 112.24615 | 37172 ft | 504 kts | 90° |
| 2026-04-22 20:10 | 40.61547 | 112.29220 | 37515 ft | 504 kts | 90° |
| 2026-04-22 20:10 | 40.61437 | 112.33833 | 37819 ft | 504 kts | 90° |
| 2026-04-22 20:10 | 40.61325 | 112.38448 | 38085 ft | 505 kts | 90° |
| 2026-04-22 20:11 | 40.61211 | 112.43063 | 38336 ft | 506 kts | 90° |
| 2026-04-22 20:11 | 40.61096 | 112.47699 | 38595 ft | 506 kts | 90° |
| 2026-04-22 20:11 | 40.60968 | 112.52335 | 38771 ft | 508 kts | 91° |
| 2026-04-22 20:11 | 40.60748 | 112.56976 | 38970 ft | 509 kts | 93° |
| 2026-04-22 20:12 | 40.60465 | 112.61609 | 39160 ft | 509 kts | 94° |
| 2026-04-22 20:12 | 40.60161 | 112.66257 | 39343 ft | 510 kts | 94° |
| 2026-04-22 20:12 | 40.59960 | 112.69336 | 39472 ft | 510 kts | 94° |
| 2026-04-22 20:12 | 40.59562 | 112.75566 | 39703 ft | 511 kts | 94° |
| 2026-04-22 20:13 | 40.59192 | 112.80226 | 39873 ft | 513 kts | 96° |
| 2026-04-22 20:13 | 40.58433 | 112.89564 | 39933 ft | 513 kts | 94° |
| 2026-04-22 20:14 | 40.57805 | 112.98851 | 39938 ft | 513 kts | 94° |
| 2026-04-22 20:14 | 40.57194 | 113.08218 | 39938 ft | 514 kts | 94° |
| 2026-04-22 20:15 | 40.56568 | 113.17579 | 39939 ft | 514 kts | 94° |
| 2026-04-22 20:15 | 40.55926 | 113.26951 | 39944 ft | 515 kts | 94° |
| 2026-04-22 20:16 | 40.55274 | 113.36322 | 39941 ft | 515 kts | 94° |
| 2026-04-22 20:16 | 40.54613 | 113.45700 | 39947 ft | 515 kts | 94° |
| 2026-04-22 20:17 | 40.53944 | 113.55085 | 39941 ft | 516 kts | 94° |
| 2026-04-22 20:17 | 40.53269 | 113.64466 | 39944 ft | 516 kts | 95° |
| 2026-04-22 20:18 | 40.52584 | 113.73865 | 39948 ft | 516 kts | 95° |
| 2026-04-22 20:18 | 40.51893 | 113.83247 | 39947 ft | 516 kts | 95° |
| 2026-04-22 20:19 | 40.51194 | 113.92634 | 39952 ft | 516 kts | 95° |
| 2026-04-22 20:19 | 40.50494 | 114.02014 | 39962 ft | 516 kts | 94° |
| 2026-04-22 20:20 | 40.50118 | 114.09848 | 39968 ft | 516 kts | 92° |
| 2026-04-22 20:20 | 40.49799 | 114.19261 | 39969 ft | 516 kts | 92° |
| 2026-04-22 20:21 | 40.49444 | 114.28670 | 39963 ft | 516 kts | 92° |
| 2026-04-22 20:21 | 40.49039 | 114.38081 | 39962 ft | 516 kts | 92° |
| 2026-04-22 20:22 | 40.48613 | 114.47497 | 39968 ft | 516 kts | 93° |
| 2026-04-22 20:22 | 40.48180 | 114.56901 | 39966 ft | 516 kts | 93° |
| 2026-04-22 20:23 | 40.47740 | 114.66316 | 39966 ft | 517 kts | 93° |
| 2026-04-22 20:23 | 40.47294 | 114.75731 | 39962 ft | 517 kts | 93° |
| 2026-04-22 20:24 | 40.46842 | 114.85097 | 39964 ft | 517 kts | 93° |
| 2026-04-22 20:24 | 40.46377 | 114.94580 | 39964 ft | 517 kts | 93° |
| 2026-04-22 20:25 | 40.45911 | 115.03938 | 39968 ft | 517 kts | 93° |
| 2026-04-22 20:25 | 40.45433 | 115.13357 | 39973 ft | 517 kts | 93° |
| 2026-04-22 20:26 | 40.44948 | 115.22784 | 39972 ft | 517 kts | 94° |
| 2026-04-22 20:26 | 40.44455 | 115.32205 | 39980 ft | 518 kts | 94° |
| 2026-04-22 20:27 | 40.43954 | 115.41641 | 39987 ft | 518 kts | 94° |
| 2026-04-22 20:27 | 40.43446 | 115.51073 | 39989 ft | 518 kts | 94° |
| 2026-04-22 20:28 | 40.42852 | 115.60500 | 39994 ft | 519 kts | 96° |
| 2026-04-22 20:28 | 40.42049 | 115.69905 | 39993 ft | 519 kts | 96° |
| 2026-04-22 20:29 | 40.41231 | 115.79322 | 39997 ft | 519 kts | 96° |
| 2026-04-22 20:29 | 40.40441 | 115.88739 | 39999 ft | 520 kts | 96° |
| 2026-04-22 20:30 | 40.39658 | 115.98165 | 39999 ft | 520 kts | 96° |
| 2026-04-22 20:30 | 40.38869 | 116.07604 | 39997 ft | 520 kts | 96° |
| 2026-04-22 20:31 | 40.38070 | 116.17050 | 39997 ft | 521 kts | 96° |
| 2026-04-22 20:31 | 40.37262 | 116.26490 | 39992 ft | 521 kts | 96° |
| 2026-04-22 20:32 | 40.36454 | 116.35861 | 39988 ft | 521 kts | 96° |
| 2026-04-22 20:32 | 40.35630 | 116.45304 | 39986 ft | 522 kts | 97° |
| 2026-04-22 20:33 | 40.34798 | 116.54756 | 39989 ft | 522 kts | 97° |
| 2026-04-22 20:33 | 40.33526 | 116.64129 | 39991 ft | 521 kts | 109° |
| 2026-04-22 20:33 | 40.32137 | 116.68491 | 39988 ft | 518 kts | 120° |
| 2026-04-22 20:34 | 40.30185 | 116.72433 | 39988 ft | 514 kts | 131° |
| 2026-04-22 20:34 | 40.27737 | 116.75799 | 39988 ft | 509 kts | 143° |
| 2026-04-22 20:34 | 40.24882 | 116.78494 | 39987 ft | 503 kts | 154° |
| 2026-04-22 20:34 | 40.21748 | 116.80437 | 39986 ft | 496 kts | 165° |
| 2026-04-22 20:35 | 40.18455 | 116.81602 | 39989 ft | 489 kts | 175° |
| 2026-04-22 20:35 | 40.15090 | 116.81996 | 39991 ft | 481 kts | 186° |
| 2026-04-22 20:35 | 40.11778 | 116.81637 | 39988 ft | 474 kts | 195° |
| 2026-04-22 20:36 | 40.05182 | 116.80784 | 39986 ft | 483 kts | 183° |
| 2026-04-22 20:36 | 39.98467 | 116.81693 | 39985 ft | 488 kts | 177° |
| 2026-04-22 20:37 | 39.91741 | 116.83019 | 39983 ft | 489 kts | 176° |
| 2026-04-22 20:37 | 39.85032 | 116.84406 | 39982 ft | 488 kts | 176° |
| 2026-04-22 20:38 | 39.78323 | 116.85767 | 39970 ft | 488 kts | 176° |
| 2026-04-22 20:38 | 39.71660 | 116.87147 | 39967 ft | 488 kts | 176° |
| 2026-04-22 20:39 | 39.64962 | 116.88542 | 39980 ft | 488 kts | 176° |
| 2026-04-22 20:39 | 39.58257 | 116.89931 | 39977 ft | 488 kts | 176° |
| 2026-04-22 20:40 | 39.51553 | 116.91313 | 39979 ft | 488 kts | 176° |
| 2026-04-22 20:40 | 39.44852 | 116.92692 | 39977 ft | 488 kts | 176° |
| 2026-04-22 20:41 | 39.38150 | 116.94067 | 39978 ft | 488 kts | 176° |
| 2026-04-22 20:41 | 39.31455 | 116.95440 | 39976 ft | 487 kts | 176° |
| 2026-04-22 20:42 | 39.24751 | 116.96832 | 39976 ft | 489 kts | 175° |
| 2026-04-22 20:42 | 39.18267 | 116.99717 | 39980 ft | 503 kts | 156° |
| 2026-04-22 20:42 | 39.15328 | 117.02220 | 39983 ft | 511 kts | 145° |
| 2026-04-22 20:43 | 39.12758 | 117.05422 | 39984 ft | 518 kts | 134° |
| 2026-04-22 20:43 | 39.10674 | 117.09233 | 39982 ft | 524 kts | 122° |
| 2026-04-22 20:43 | 39.09172 | 117.13521 | 39992 ft | 529 kts | 110° |
| 2026-04-22 20:43 | 39.08314 | 117.18148 | 39992 ft | 532 kts | 98° |
| 2026-04-22 20:44 | 39.08150 | 117.22903 | 39993 ft | 534 kts | 86° |
| 2026-04-22 20:44 | 39.08324 | 117.32429 | 39996 ft | 534 kts | 98° |
| 2026-04-22 20:45 | 39.07842 | 117.41963 | 39992 ft | 535 kts | 92° |
| 2026-04-22 20:45 | 39.07711 | 117.51495 | 39988 ft | 536 kts | 91° |
| 2026-04-22 20:46 | 39.07548 | 117.65872 | 39991 ft | 536 kts | 91° |
| 2026-04-22 20:46 | 39.07431 | 117.75462 | 39992 ft | 536 kts | 91° |
| 2026-04-22 20:47 | 39.07303 | 117.85055 | 39990 ft | 536 kts | 91° |
| 2026-04-22 20:47 | 39.07166 | 117.94642 | 39994 ft | 536 kts | 92° |
| 2026-04-22 20:48 | 39.06800 | 118.04225 | 39999 ft | 535 kts | 101° |
| 2026-04-22 20:48 | 39.05474 | 118.13626 | 39994 ft | 534 kts | 103° |
| 2026-04-22 20:49 | 39.03976 | 118.22997 | 39997 ft | 535 kts | 104° |
| 2026-04-22 20:49 | 39.02455 | 118.32359 | 39999 ft | 535 kts | 104° |
| 2026-04-22 20:50 | 39.00941 | 118.41731 | 39998 ft | 535 kts | 104° |
| 2026-04-22 20:50 | 38.99432 | 118.51091 | 40004 ft | 535 kts | 104° |
| 2026-04-22 20:51 | 38.97917 | 118.60476 | 40003 ft | 536 kts | 104° |
| 2026-04-22 20:51 | 38.96388 | 118.69849 | 40004 ft | 536 kts | 104° |
| 2026-04-22 20:52 | 38.94852 | 118.79215 | 40003 ft | 536 kts | 104° |
| 2026-04-22 20:52 | 38.93307 | 118.88593 | 40003 ft | 537 kts | 104° |
| 2026-04-22 20:53 | 38.91755 | 118.97970 | 40003 ft | 537 kts | 104° |
| 2026-04-22 20:53 | 38.90199 | 119.07357 | 40002 ft | 538 kts | 104° |
| 2026-04-22 20:54 | 38.88637 | 119.16683 | 40003 ft | 538 kts | 105° |
| 2026-04-22 20:54 | 38.87041 | 119.26136 | 39999 ft | 538 kts | 105° |
| 2026-04-22 20:55 | 38.85451 | 119.35515 | 40001 ft | 538 kts | 105° |
| 2026-04-22 20:55 | 38.83855 | 119.44898 | 40000 ft | 539 kts | 105° |
| 2026-04-22 20:56 | 38.82261 | 119.54220 | 40001 ft | 539 kts | 105° |
| 2026-04-22 20:56 | 38.80649 | 119.63600 | 40002 ft | 539 kts | 105° |
| 2026-04-22 20:57 | 38.79026 | 119.72997 | 40000 ft | 539 kts | 105° |
| 2026-04-22 20:57 | 38.77400 | 119.82366 | 39999 ft | 540 kts | 106° |
| 2026-04-22 20:58 | 38.75812 | 119.91774 | 39999 ft | 540 kts | 105° |
| 2026-04-22 20:58 | 38.74270 | 120.01189 | 39997 ft | 540 kts | 105° |
| 2026-04-22 20:59 | 38.72529 | 120.10522 | 40001 ft | 535 kts | 115° |
| 2026-04-22 20:59 | 38.70939 | 120.14776 | 40001 ft | 524 kts | 128° |
| 2026-04-22 20:59 | 38.68715 | 120.18381 | 39996 ft | 510 kts | 142° |
| 2026-04-22 21:00 | 38.65985 | 120.21157 | 39994 ft | 495 kts | 156° |
| 2026-04-22 21:00 | 38.62931 | 120.23011 | 39994 ft | 480 kts | 170° |
| 2026-04-22 21:00 | 38.56780 | 120.26508 | 39990 ft | 499 kts | 152° |
| 2026-04-22 21:01 | 38.54142 | 120.29464 | 39993 ft | 513 kts | 137° |
| 2026-04-22 21:01 | 38.52096 | 120.33255 | 39995 ft | 526 kts | 122° |
| 2026-04-22 21:01 | 38.50805 | 120.37670 | 39992 ft | 537 kts | 106° |
| 2026-04-22 21:01 | 38.50373 | 120.42427 | 39992 ft | 543 kts | 91° |
| 2026-04-22 21:02 | 38.50838 | 120.47216 | 39994 ft | 546 kts | 75° |
| 2026-04-22 21:02 | 38.52176 | 120.51742 | 39995 ft | 545 kts | 60° |
| 2026-04-22 21:02 | 38.54300 | 120.55716 | 39993 ft | 539 kts | 44° |
| 2026-04-22 21:02 | 38.56929 | 120.59098 | 39992 ft | 537 kts | 39° |
| 2026-04-22 21:03 | 38.61589 | 120.66648 | 39996 ft | 548 kts | 63° |
| 2026-04-22 21:03 | 38.62882 | 120.71216 | 39997 ft | 549 kts | 78° |
| 2026-04-22 21:03 | 38.63302 | 120.76049 | 39995 ft | 545 kts | 94° |
| 2026-04-22 21:04 | 38.62824 | 120.80816 | 39996 ft | 538 kts | 109° |
| 2026-04-22 21:04 | 38.61540 | 120.85266 | 39991 ft | 529 kts | 122° |
| 2026-04-22 21:04 | 38.59636 | 120.89220 | 39990 ft | 519 kts | 134° |
| 2026-04-22 21:04 | 38.57243 | 120.92605 | 39992 ft | 508 kts | 145° |
| 2026-04-22 21:05 | 38.51960 | 120.98564 | 39988 ft | 516 kts | 139° |
| 2026-04-22 21:05 | 38.48018 | 121.06375 | 39989 ft | 536 kts | 116° |
| 2026-04-22 21:06 | 38.46028 | 121.15633 | 39988 ft | 545 kts | 106° |
| 2026-04-22 21:06 | 38.44533 | 121.25138 | 39988 ft | 547 kts | 104° |
| 2026-04-22 21:07 | 38.43085 | 121.34675 | 39987 ft | 548 kts | 105° |
| 2026-04-22 21:07 | 38.41591 | 121.44136 | 39987 ft | 548 kts | 105° |
| 2026-04-22 21:08 | 38.40040 | 121.53650 | 39983 ft | 548 kts | 106° |
| 2026-04-22 21:08 | 38.38442 | 121.63166 | 39980 ft | 549 kts | 106° |
| 2026-04-22 21:09 | 38.36837 | 121.72674 | 39991 ft | 549 kts | 106° |
| 2026-04-22 21:09 | 38.35489 | 121.80654 | 39980 ft | 550 kts | 106° |
| 2026-04-22 21:10 | 38.33877 | 121.90173 | 39989 ft | 550 kts | 106° |
| 2026-04-22 21:10 | 38.32254 | 121.99712 | 39985 ft | 551 kts | 106° |
| 2026-04-22 21:11 | 38.30635 | 122.09181 | 39982 ft | 551 kts | 107° |
| 2026-04-22 21:11 | 38.28994 | 122.18729 | 39986 ft | 552 kts | 107° |
| 2026-04-22 21:12 | 38.27361 | 122.28267 | 39982 ft | 553 kts | 105° |
| 2026-04-22 21:12 | 38.25937 | 122.37885 | 39984 ft | 552 kts | 107° |
| 2026-04-22 21:13 | 38.23175 | 122.46797 | 39977 ft | 533 kts | 129° |
| 2026-04-22 21:13 | 38.20970 | 122.50507 | 39985 ft | 521 kts | 140° |
| 2026-04-22 21:13 | 38.18535 | 122.53881 | 39982 ft | 518 kts | 142° |
| 2026-04-22 21:14 | 38.13468 | 122.60385 | 39976 ft | 517 kts | 144° |
| 2026-04-22 21:14 | 38.08374 | 122.66808 | 39981 ft | 517 kts | 143° |
| 2026-04-22 21:15 | 38.03325 | 122.73309 | 39975 ft | 517 kts | 143° |
| 2026-04-22 21:15 | 37.98300 | 122.79830 | 39975 ft | 517 kts | 143° |
| 2026-04-22 21:16 | 37.93281 | 122.86338 | 39979 ft | 516 kts | 143° |
| 2026-04-22 21:16 | 37.88258 | 122.92830 | 39970 ft | 516 kts | 143° |
| 2026-04-22 21:17 | 37.83228 | 122.99314 | 39969 ft | 515 kts | 143° |
| 2026-04-22 21:17 | 37.78205 | 123.05774 | 39971 ft | 515 kts | 143° |
| 2026-04-22 21:18 | 37.73182 | 123.12220 | 39965 ft | 515 kts | 143° |
| 2026-04-22 21:18 | 37.68181 | 123.18626 | 39966 ft | 515 kts | 143° |
| 2026-04-22 21:19 | 37.63150 | 123.25059 | 39969 ft | 515 kts | 143° |
| 2026-04-22 21:19 | 37.58111 | 123.31497 | 39964 ft | 516 kts | 143° |
| 2026-04-22 21:20 | 37.53511 | 123.38577 | 39964 ft | 525 kts | 136° |
| 2026-04-22 21:20 | 37.49116 | 123.45924 | 39960 ft | 526 kts | 135° |
| 2026-04-22 21:21 | 37.44740 | 123.53311 | 39956 ft | 526 kts | 135° |
| 2026-04-22 21:21 | 37.40364 | 123.60659 | 39958 ft | 525 kts | 135° |
| 2026-04-22 21:22 | 37.37592 | 123.65289 | 39955 ft | 524 kts | 135° |
| 2026-04-22 21:22 | 37.35394 | 123.68953 | 39795 ft | 525 kts | 135° |
| 2026-04-22 21:22 | 37.33194 | 123.72613 | 39545 ft | 526 kts | 135° |
| 2026-04-22 21:23 | 37.30986 | 123.76282 | 39204 ft | 524 kts | 135° |
| 2026-04-22 21:23 | 37.28790 | 123.79934 | 38658 ft | 523 kts | 135° |
| 2026-04-22 21:23 | 37.26598 | 123.83574 | 37923 ft | 523 kts | 136° |
| 2026-04-22 21:23 | 37.24403 | 123.87214 | 37273 ft | 522 kts | 136° |
| 2026-04-22 21:24 | 37.22217 | 123.90835 | 36619 ft | 520 kts | 136° |
| 2026-04-22 21:24 | 37.20127 | 123.94493 | 35963 ft | 527 kts | 131° |
| 2026-04-22 21:24 | 37.18398 | 123.98662 | 35369 ft | 538 kts | 120° |
| 2026-04-22 21:24 | 37.17305 | 124.03181 | 34835 ft | 548 kts | 107° |
| 2026-04-22 21:25 | 37.16936 | 124.07970 | 34290 ft | 555 kts | 95° |
| 2026-04-22 21:25 | 37.16986 | 124.12812 | 33703 ft | 555 kts | 92° |
| 2026-04-22 21:25 | 37.17159 | 124.17569 | 33128 ft | 553 kts | 91° |
| 2026-04-22 21:25 | 37.17385 | 124.22437 | 32570 ft | 550 kts | 90° |
| 2026-04-22 21:26 | 37.17607 | 124.27143 | 32042 ft | 547 kts | 90° |
| 2026-04-22 21:26 | 37.17791 | 124.31894 | 31509 ft | 543 kts | 91° |
| 2026-04-22 21:26 | 37.17929 | 124.36607 | 31012 ft | 539 kts | 91° |
| 2026-04-22 21:26 | 37.18043 | 124.41289 | 30513 ft | 536 kts | 91° |
| 2026-04-22 21:27 | 37.18149 | 124.45948 | 30012 ft | 533 kts | 91° |
| 2026-04-22 21:27 | 37.18248 | 124.50580 | 29461 ft | 529 kts | 90° |
| 2026-04-22 21:27 | 37.18345 | 124.55177 | 28950 ft | 525 kts | 90° |
| 2026-04-22 21:27 | 37.18442 | 124.59723 | 28467 ft | 520 kts | 90° |
| 2026-04-22 21:28 | 37.18539 | 124.64230 | 27979 ft | 515 kts | 90° |
| 2026-04-22 21:28 | 37.18636 | 124.68706 | 27479 ft | 510 kts | 90° |
| 2026-04-22 21:28 | 37.18739 | 124.73120 | 27009 ft | 505 kts | 89° |
| 2026-04-22 21:28 | 37.18821 | 124.77499 | 26523 ft | 500 kts | 90° |
| 2026-04-22 21:29 | 37.18909 | 124.81840 | 26038 ft | 496 kts | 90° |
| 2026-04-22 21:29 | 37.18997 | 124.86137 | 25574 ft | 491 kts | 90° |
| 2026-04-22 21:29 | 37.19083 | 124.90404 | 25088 ft | 486 kts | 90° |
| 2026-04-22 21:29 | 37.19165 | 124.94621 | 24613 ft | 482 kts | 89° |
| 2026-04-22 21:30 | 37.19250 | 124.98798 | 24128 ft | 477 kts | 90° |
| 2026-04-22 21:30 | 37.19326 | 125.02940 | 23665 ft | 472 kts | 90° |
| 2026-04-22 21:30 | 37.19396 | 125.07035 | 23153 ft | 467 kts | 89° |
| 2026-04-22 21:30 | 37.19468 | 125.11080 | 22628 ft | 461 kts | 89° |
| 2026-04-22 21:31 | 37.19539 | 125.15079 | 22153 ft | 455 kts | 89° |
| 2026-04-22 21:31 | 37.19608 | 125.19016 | 21696 ft | 449 kts | 89° |
| 2026-04-22 21:31 | 37.19675 | 125.22899 | 21221 ft | 443 kts | 89° |
| 2026-04-22 21:31 | 37.19739 | 125.26726 | 20759 ft | 437 kts | 89° |
| 2026-04-22 21:32 | 37.19802 | 125.30518 | 20300 ft | 431 kts | 89° |
| 2026-04-22 21:32 | 37.19862 | 125.34246 | 19850 ft | 426 kts | 89° |
| 2026-04-22 21:32 | 37.19920 | 125.37943 | 19402 ft | 421 kts | 88° |
| 2026-04-22 21:32 | 37.19976 | 125.41590 | 18961 ft | 416 kts | 88° |
| 2026-04-22 21:33 | 37.20031 | 125.45194 | 18512 ft | 411 kts | 88° |
| 2026-04-22 21:33 | 37.19915 | 125.48754 | 18053 ft | 407 kts | 99° |
| 2026-04-22 21:33 | 37.19168 | 125.52135 | 17606 ft | 400 kts | 109° |
| 2026-04-22 21:33 | 37.18236 | 125.55401 | 17168 ft | 394 kts | 110° |
| 2026-04-22 21:34 | 37.17307 | 125.58607 | 16745 ft | 389 kts | 110° |
| 2026-04-22 21:34 | 37.16396 | 125.61772 | 16315 ft | 384 kts | 110° |
| 2026-04-22 21:34 | 37.15502 | 125.64897 | 15903 ft | 379 kts | 110° |
| 2026-04-22 21:34 | 37.14629 | 125.67955 | 15491 ft | 375 kts | 110° |
| 2026-04-22 21:35 | 37.13743 | 125.71062 | 15075 ft | 373 kts | 109° |
| 2026-04-22 21:35 | 37.12874 | 125.74109 | 14662 ft | 370 kts | 109° |
| 2026-04-22 21:35 | 37.12011 | 125.77137 | 14249 ft | 368 kts | 109° |
| 2026-04-22 21:35 | 37.11226 | 125.80175 | 13838 ft | 365 kts | 102° |
| 2026-04-22 21:36 | 37.10834 | 125.83265 | 13414 ft | 362 kts | 95° |
| 2026-04-22 21:36 | 37.10568 | 125.86378 | 12993 ft | 358 kts | 95° |
| 2026-04-22 21:36 | 37.10312 | 125.89457 | 12591 ft | 354 kts | 95° |
| 2026-04-22 21:36 | 37.10053 | 125.92506 | 12192 ft | 350 kts | 95° |
| 2026-04-22 21:37 | 37.09792 | 125.95518 | 11791 ft | 346 kts | 95° |
| 2026-04-22 21:37 | 37.09531 | 125.98493 | 11410 ft | 342 kts | 95° |
| 2026-04-22 21:37 | 37.09295 | 126.01450 | 10976 ft | 339 kts | 92° |
| 2026-04-22 21:37 | 37.09255 | 126.04374 | 10649 ft | 332 kts | 88° |
| 2026-04-22 21:38 | 37.09286 | 126.07206 | 10518 ft | 318 kts | 87° |
| 2026-04-22 21:38 | 37.09320 | 126.09916 | 10404 ft | 305 kts | 87° |
| 2026-04-22 21:38 | 37.09350 | 126.12522 | 10255 ft | 294 kts | 87° |
| 2026-04-22 21:38 | 37.09382 | 126.15077 | 9992 ft | 293 kts | 87° |
| 2026-04-22 21:39 | 37.09407 | 126.17630 | 9917 ft | 294 kts | 87° |
| 2026-04-22 21:39 | 37.09432 | 126.20189 | 9911 ft | 294 kts | 87° |
| 2026-04-22 21:39 | 37.09456 | 126.22752 | 9914 ft | 293 kts | 88° |
| 2026-04-22 21:39 | 37.09753 | 126.25256 | 9910 ft | 291 kts | 66° |
| 2026-04-22 21:40 | 37.10758 | 126.27421 | 9918 ft | 287 kts | 52° |
| 2026-04-22 21:40 | 37.11932 | 126.29437 | 9913 ft | 282 kts | 52° |
| 2026-04-22 21:40 | 37.13057 | 126.31362 | 9920 ft | 266 kts | 52° |
| 2026-04-22 21:40 | 37.14134 | 126.33155 | 9907 ft | 250 kts | 47° |
| 2026-04-22 21:41 | 37.15500 | 126.34399 | 9618 ft | 242 kts | 17° |
| 2026-04-22 21:41 | 37.17147 | 126.34493 | 9251 ft | 240 kts | 344° |
| 2026-04-22 21:41 | 37.17677 | 126.34257 | 9146 ft | 239 kts | 334° |
| 2026-04-22 21:42 | 37.18034 | 126.34027 | 9060 ft | 239 kts | 330° |
| 2026-04-22 21:42 | 37.19262 | 126.32993 | 8769 ft | 239 kts | 324° |
| 2026-04-22 21:42 | 37.20598 | 126.31760 | 8442 ft | 238 kts | 325° |
| 2026-04-22 21:42 | 37.21941 | 126.30546 | 8119 ft | 237 kts | 326° |
| 2026-04-22 21:43 | 37.23280 | 126.29343 | 7811 ft | 237 kts | 326° |
| 2026-04-22 21:43 | 37.24637 | 126.28176 | 7483 ft | 236 kts | 332° |
| 2026-04-22 21:43 | 37.26183 | 126.27614 | 7136 ft | 232 kts | 2° |
| 2026-04-22 21:43 | 37.27702 | 126.28173 | 6811 ft | 229 kts | 33° |
| 2026-04-22 21:44 | 37.28810 | 126.29581 | 6536 ft | 227 kts | 53° |
| 2026-04-22 21:44 | 37.29715 | 126.31196 | 6259 ft | 226 kts | 55° |
| 2026-04-22 21:44 | 37.30604 | 126.32820 | 5968 ft | 225 kts | 54° |
| 2026-04-22 21:44 | 37.31493 | 126.34425 | 5660 ft | 224 kts | 54° |
| 2026-04-22 21:45 | 37.32384 | 126.36015 | 5380 ft | 222 kts | 54° |
| 2026-04-22 21:45 | 37.33204 | 126.37656 | 5072 ft | 222 kts | 64° |
| 2026-04-22 21:45 | 37.33444 | 126.39560 | 4750 ft | 226 kts | 96° |
| 2026-04-22 21:45 | 37.32773 | 126.41340 | 4441 ft | 231 kts | 130° |
| 2026-04-22 21:46 | 37.31527 | 126.42610 | 4187 ft | 231 kts | 142° |
| 2026-04-22 21:46 | 37.30204 | 126.43732 | 4011 ft | 226 kts | 142° |
| 2026-04-22 21:46 | 37.28906 | 126.44837 | 3921 ft | 226 kts | 141° |
| 2026-04-22 21:46 | 37.27616 | 126.45952 | 3670 ft | 225 kts | 141° |
| 2026-04-22 21:47 | 37.26341 | 126.47066 | 3474 ft | 222 kts | 140° |
| 2026-04-22 21:47 | 37.25080 | 126.48175 | 3372 ft | 221 kts | 140° |
| 2026-04-22 21:47 | 37.23824 | 126.49284 | 3284 ft | 221 kts | 140° |
| 2026-04-22 21:47 | 37.22572 | 126.50396 | 3211 ft | 220 kts | 140° |
| 2026-04-22 21:48 | 37.21343 | 126.51484 | 3122 ft | 219 kts | 140° |
| 2026-04-22 21:48 | 37.20116 | 126.52651 | 3035 ft | 217 kts | 132° |
| 2026-04-22 21:48 | 37.19331 | 126.54164 | 2987 ft | 207 kts | 103° |
| 2026-04-22 21:48 | 37.19289 | 126.55916 | 2980 ft | 201 kts | 74° |
| 2026-04-22 21:49 | 37.19896 | 126.57478 | 2978 ft | 200 kts | 56° |
| 2026-04-22 21:49 | 37.20710 | 126.58899 | 2976 ft | 201 kts | 54° |
| 2026-04-22 21:49 | 37.21588 | 126.60270 | 2976 ft | 202 kts | 46° |
| 2026-04-22 21:49 | 37.22784 | 126.61186 | 2932 ft | 206 kts | 17° |
| 2026-04-22 21:50 | 37.23755 | 126.61217 | 2741 ft | 212 kts | 354° |
| 2026-04-22 21:50 | 37.25575 | 126.60268 | 2655 ft | 220 kts | 332° |
| 2026-04-22 21:50 | 37.26818 | 126.59182 | 2621 ft | 216 kts | 329° |
| 2026-04-22 21:50 | 37.28035 | 126.58087 | 2589 ft | 215 kts | 330° |
| 2026-04-22 21:51 | 37.29259 | 126.56992 | 2586 ft | 216 kts | 330° |
| 2026-04-22 21:51 | 37.30487 | 126.55898 | 2578 ft | 216 kts | 330° |
| 2026-04-22 21:51 | 37.31678 | 126.54831 | 2549 ft | 199 kts | 329° |
| 2026-04-22 21:52 | 37.33625 | 126.52982 | 2388 ft | 158 kts | 331° |
| 2026-04-22 21:52 | 37.34189 | 126.52471 | 2297 ft | 150 kts | 333° |
| 2026-04-22 21:52 | 37.35031 | 126.51723 | 2199 ft | 139 kts | 334° |
| 2026-04-22 21:52 | 37.35823 | 126.51061 | 2136 ft | 135 kts | 336° |
| 2026-04-22 21:53 | 37.36626 | 126.50422 | 2209 ft | 140 kts | 337° |
| 2026-04-22 21:53 | 37.37455 | 126.49777 | 2052 ft | 139 kts | 337° |
| 2026-04-22 21:53 | 37.38249 | 126.49094 | 1801 ft | 137 kts | 330° |
| 2026-04-22 21:53 | 37.38973 | 126.48312 | 1533 ft | 138 kts | 326° |
| 2026-04-22 21:54 | 37.39775 | 126.47554 | 1312 ft | 157 kts | 333° |
| 2026-04-22 21:54 | 37.40776 | 126.46788 | 1030 ft | 168 kts | 335° |
| 2026-04-22 21:54 | 37.41729 | 126.45996 | 1078 ft | 174 kts | 327° |
| 2026-04-22 21:54 | 37.42753 | 126.45014 | 1703 ft | 194 kts | 329° |
| 2026-04-22 21:55 | 37.43911 | 126.43962 | 2433 ft | 220 kts | 330° |
| 2026-04-22 21:55 | 37.45283 | 126.42760 | 2821 ft | 261 kts | 329° |
| 2026-04-22 21:55 | 37.46882 | 126.41346 | 2939 ft | 302 kts | 325° |
| 2026-04-22 21:55 | 37.48250 | 126.39110 | 2974 ft | 348 kts | 297° |
| 2026-04-22 21:56 | 37.48839 | 126.36005 | 2976 ft | 384 kts | 275° |
| 2026-04-22 21:56 | 37.48820 | 126.33772 | 2974 ft | 376 kts | 267° |
| 2026-04-22 21:56 | 37.48382 | 126.30575 | 3009 ft | 383 kts | 257° |
| 2026-04-22 21:56 | 37.47537 | 126.27406 | 2980 ft | 366 kts | 247° |
| 2026-04-22 21:57 | 37.46269 | 126.24519 | 2998 ft | 384 kts | 237° |
| 2026-04-22 21:57 | 37.44607 | 126.22042 | 2995 ft | 358 kts | 221° |
| 2026-04-22 21:57 | 37.42603 | 126.20434 | 3006 ft | 329 kts | 200° |
| 2026-04-22 21:57 | 37.40459 | 126.20031 | 3008 ft | 300 kts | 172° |
| 2026-04-22 21:58 | 37.38523 | 126.20644 | 3004 ft | 276 kts | 158° |
| 2026-04-22 21:58 | 37.36779 | 126.21448 | 3003 ft | 258 kts | 156° |
| 2026-04-22 21:58 | 37.35152 | 126.22218 | 2999 ft | 241 kts | 155° |
| 2026-04-22 21:58 | 37.33643 | 126.22958 | 2995 ft | 224 kts | 151° |
| 2026-04-22 21:59 | 37.32405 | 126.23979 | 2997 ft | 205 kts | 131° |
| 2026-04-22 21:59 | 37.31515 | 126.25360 | 3023 ft | 204 kts | 119° |
| 2026-04-22 21:59 | 37.30763 | 126.26861 | 2996 ft | 203 kts | 116° |
| 2026-04-22 21:59 | 37.30045 | 126.28390 | 2988 ft | 203 kts | 116° |
| 2026-04-22 22:00 | 37.29338 | 126.29918 | 2990 ft | 203 kts | 116° |
| 2026-04-22 22:00 | 37.28633 | 126.31452 | 2990 ft | 202 kts | 116° |
| 2026-04-22 22:00 | 37.27932 | 126.32982 | 2984 ft | 202 kts | 115° |
| 2026-04-22 22:00 | 37.27232 | 126.34511 | 2990 ft | 201 kts | 115° |
| 2026-04-22 22:01 | 37.26545 | 126.36015 | 2985 ft | 201 kts | 115° |
| 2026-04-22 22:01 | 37.25851 | 126.37534 | 2988 ft | 201 kts | 115° |
| 2026-04-22 22:01 | 37.25156 | 126.39053 | 2989 ft | 200 kts | 115° |
| 2026-04-22 22:01 | 37.24462 | 126.40569 | 2984 ft | 201 kts | 115° |
| 2026-04-22 22:02 | 37.23768 | 126.42085 | 2913 ft | 199 kts | 115° |
| 2026-04-22 22:02 | 37.23078 | 126.43590 | 2796 ft | 199 kts | 115° |
| 2026-04-22 22:02 | 37.22389 | 126.45093 | 2651 ft | 198 kts | 115° |
| 2026-04-22 22:02 | 37.21704 | 126.46588 | 2587 ft | 198 kts | 115° |
| 2026-04-22 22:03 | 37.21017 | 126.48089 | 2580 ft | 198 kts | 115° |
| 2026-04-22 22:03 | 37.20331 | 126.49582 | 2587 ft | 197 kts | 115° |
| 2026-04-22 22:03 | 37.19648 | 126.51071 | 2584 ft | 197 kts | 115° |
| 2026-04-22 22:03 | 37.19092 | 126.52620 | 2574 ft | 194 kts | 103° |
| 2026-04-22 22:04 | 37.18895 | 126.54268 | 2578 ft | 190 kts | 88° |
| 2026-04-22 22:04 | 37.19189 | 126.55859 | 2587 ft | 188 kts | 63° |
| 2026-04-22 22:04 | 37.19870 | 126.57260 | 2574 ft | 188 kts | 56° |
| 2026-04-22 22:04 | 37.20609 | 126.58581 | 2582 ft | 181 kts | 55° |
| 2026-04-22 22:05 | 37.21441 | 126.59736 | 2583 ft | 178 kts | 43° |
| 2026-04-22 22:05 | 37.22504 | 126.60535 | 2579 ft | 181 kts | 26° |
| 2026-04-22 22:05 | 37.23757 | 126.60840 | 2583 ft | 187 kts | 7° |
| 2026-04-22 22:05 | 37.25052 | 126.60482 | 2590 ft | 196 kts | 343° |
| 2026-04-22 22:06 | 37.26256 | 126.59648 | 2590 ft | 199 kts | 332° |
| 2026-04-22 22:06 | 37.27394 | 126.58646 | 2610 ft | 200 kts | 330° |
| 2026-04-22 22:06 | 37.28530 | 126.57641 | 2616 ft | 200 kts | 330° |
| 2026-04-22 22:06 | 37.29667 | 126.56634 | 2600 ft | 200 kts | 330° |
| 2026-04-22 22:07 | 37.30804 | 126.55631 | 2588 ft | 199 kts | 330° |
| 2026-04-22 22:07 | 37.31874 | 126.54678 | 2593 ft | 176 kts | 330° |
| 2026-04-22 22:07 | 37.32798 | 126.53850 | 2537 ft | 152 kts | 332° |
| 2026-04-22 22:07 | 37.33622 | 126.53113 | 2405 ft | 140 kts | 332° |
| 2026-04-22 22:08 | 37.34404 | 126.52402 | 2304 ft | 138 kts | 332° |
| 2026-04-22 22:08 | 37.35187 | 126.51690 | 2204 ft | 139 kts | 332° |
| 2026-04-22 22:08 | 37.35973 | 126.50979 | 2045 ft | 139 kts | 332° |
| 2026-04-22 22:08 | 37.36745 | 126.50254 | 1875 ft | 138 kts | 332° |
| 2026-04-22 22:09 | 37.37515 | 126.49547 | 1731 ft | 136 kts | 333° |
| 2026-04-22 22:09 | 37.38290 | 126.48863 | 1559 ft | 135 kts | 334° |
| 2026-04-22 22:09 | 37.39069 | 126.48209 | 1437 ft | 134 kts | 335° |
| 2026-04-22 22:09 | 37.39854 | 126.47569 | 1299 ft | 136 kts | 332° |
| 2026-04-22 22:10 | 37.40617 | 126.46868 | 1043 ft | 135 kts | 328° |
| 2026-04-22 22:10 | 37.41366 | 126.46204 | 786 ft | 132 kts | 330° |
| 2026-04-22 22:10 | 37.42131 | 126.45566 | 604 ft | 130 kts | 330° |
| 2026-04-22 22:10 | 37.42874 | 126.44896 | 403 ft | 132 kts | 327° |
| 2026-04-22 22:11 | 37.43611 | 126.44233 | 216 ft | 130 kts | 329° |
| 2026-04-22 22:11 | 37.44353 | 126.43581 | 48 ft | 129 kts | 328° |
| 2026-04-22 22:11 | 37.45019 | 126.43004 | 39 ft | 97 kts | 326° |
| 2026-04-22 22:11 | 37.45453 | 126.42612 | 39 ft | 58 kts | 324° |
| 2026-04-22 22:12 | 37.45724 | 126.42449 | 39 ft | 31 kts | 349° |
| 2026-04-22 22:12 | 37.45906 | 126.42425 | 39 ft | 25 kts | 353° |
| 2026-04-22 22:12 | 37.46038 | 126.42383 | 39 ft | 17 kts | 5° |
| 2026-04-22 22:12 | 37.46121 | 126.42482 | 39 ft | 18 kts | 56° |
| 2026-04-22 22:13 | 37.46196 | 126.42619 | 39 ft | 20 kts | 55° |
| 2026-04-22 22:13 | 37.46257 | 126.42693 | 39 ft | 11 kts | 16° |
| 2026-04-22 22:13 | 37.46342 | 126.42659 | 38 ft | 16 kts | 326° |
| 2026-04-22 22:13 | 37.46447 | 126.42569 | 39 ft | 21 kts | 325° |
| 2026-04-22 22:14 | 37.46574 | 126.42454 | 39 ft | 24 kts | 324° |
| 2026-04-22 22:14 | 37.46715 | 126.42331 | 39 ft | 26 kts | 325° |
| 2026-04-22 22:14 | 37.46842 | 126.42216 | 38 ft | 14 kts | 326° |
| 2026-04-22 22:14 | 37.46922 | 126.42166 | 39 ft | 12 kts | 352° |
| 2026-04-22 22:15 | 37.46985 | 126.42233 | 39 ft | 14 kts | 57° |
| 2026-04-22 22:15 | 37.47057 | 126.42362 | 39 ft | 21 kts | 54° |
| 2026-04-22 22:15 | 37.47144 | 126.42513 | 39 ft | 21 kts | 54° |
| 2026-04-22 22:15 | 37.47224 | 126.42656 | 39 ft | 19 kts | 54° |
| 2026-04-22 22:16 | 37.47296 | 126.42784 | 39 ft | 17 kts | 54° |
| 2026-04-22 22:16 | 37.47360 | 126.42897 | 39 ft | 15 kts | 54° |
| 2026-04-22 22:16 | 37.47417 | 126.42998 | 39 ft | 15 kts | 54° |
| 2026-04-22 22:16 | 37.47487 | 126.43122 | 39 ft | 20 kts | 55° |
| 2026-04-22 22:17 | 37.47572 | 126.43275 | 39 ft | 21 kts | 54° |
| 2026-04-22 22:17 | 37.47638 | 126.43411 | 39 ft | 14 kts | 85° |
| 2026-04-22 22:17 | 37.47587 | 126.43498 | 39 ft | 12 kts | 142° |
| 2026-04-22 22:17 | 37.47520 | 126.43559 | 39 ft | 11 kts | 144° |
| 2026-04-22 22:18 | 37.47456 | 126.43609 | 39 ft | 10 kts | 149° |
| 2026-04-22 22:18 | 37.47397 | 126.43638 | 39 ft | 7 kts | 187° |
| 2026-04-22 22:18 | 37.47357 | 126.43606 | 39 ft | 6 kts | 221° |
| 2026-04-22 22:18 | 37.47335 | 126.43578 | 39 ft | 2 kts | 224° |
| 2026-04-22 22:19 | 37.47331 | 126.43574 | 39 ft | 2 kts | 225° |
| 2026-04-22 22:19 | 37.47326 | 126.43567 | 39 ft | 0 kts | 226° |
| 2026-04-22 22:19 | 37.47321 | 126.43561 | 39 ft | 0 kts | 225° |